<?xml version="1.0" encoding="UTF-8"?>
<gpx creator="Wikiloc - https://www.wikiloc.com" version="1.1" xmlns="http://www.topografix.com/GPX/1/1" xmlns:xsi="http://www.w3.org/2001/XMLSchema-instance" xsi:schemaLocation="http://www.topografix.com/GPX/1/1 http://www.topografix.com/GPX/1/1/gpx.xsd">
  <wpt lat="38.723618" lon="-5.215993">
    <ele>0.0</ele>
    <time>2010-03-19T20:51:40Z</time>
    <name>AYTO</name>
    <cmt></cmt>
    <desc></desc>
  </wpt>
  <wpt lat="38.722179" lon="-5.212142">
    <ele>580.9</ele>
    <time>2010-03-19T20:51:40Z</time>
    <name>HUMILLADERO</name>
    <cmt>19-MAR-10 9:58:48</cmt>
    <desc>19-MAR-10 9:58:48</desc>
  </wpt>
  <wpt lat="38.700273" lon="-5.201216">
    <ele>0.0</ele>
    <time>2010-03-19T20:51:40Z</time>
    <name>PTO CUEVA</name>
    <cmt></cmt>
    <desc></desc>
  </wpt>
  <wpt lat="38.697770" lon="-5.246111">
    <ele>0.0</ele>
    <time>2010-03-19T20:51:40Z</time>
    <name>PUERTO DE LA NAVA</name>
    <cmt></cmt>
    <desc></desc>
  </wpt>
  <wpt lat="38.721638" lon="-5.217681">
    <ele>0.0</ele>
    <time>2010-03-19T21:40:48Z</time>
    <name>CI ARTE RUPESTRE</name>
    <cmt></cmt>
    <desc></desc>
  </wpt>
  <wpt lat="38.721550" lon="-5.217960">
    <ele>543.0</ele>
    <time>2010-03-19T20:51:40Z</time>
    <name>PANEL INICIO</name>
    <cmt>Panel de Inicio</cmt>
    <desc>Panel de Inicio</desc>
  </wpt>
  <trk>
    <name>PR-BA 177 'Senda del Valle del Aliso' (Cabeza del Buey)</name>
    <cmt>Más información en www.fexme.com</cmt>
    <desc>Más información en www.fexme.com</desc>
    <trkseg>
      <trkpt lat="38.721550" lon="-5.217960">
        <ele>541.4</ele>
        <time>2010-03-19T08:49:29Z</time>
      </trkpt>
      <trkpt lat="38.721727" lon="-5.217904">
        <ele>540.9</ele>
        <time>2010-03-19T08:50:15Z</time>
      </trkpt>
      <trkpt lat="38.721785" lon="-5.217676">
        <ele>542.3</ele>
        <time>2010-03-19T08:50:32Z</time>
      </trkpt>
      <trkpt lat="38.721957" lon="-5.217175">
        <ele>543.3</ele>
        <time>2010-03-19T08:51:03Z</time>
      </trkpt>
      <trkpt lat="38.721818" lon="-5.216894">
        <ele>545.7</ele>
        <time>2010-03-19T08:51:09Z</time>
      </trkpt>
      <trkpt lat="38.721868" lon="-5.216160">
        <ele>545.2</ele>
        <time>2010-03-19T08:51:19Z</time>
      </trkpt>
      <trkpt lat="38.722044" lon="-5.215429">
        <ele>544.3</ele>
        <time>2010-03-19T08:51:36Z</time>
      </trkpt>
      <trkpt lat="38.722042" lon="-5.215392">
        <ele>563.0</ele>
        <time>2010-03-19T08:53:34Z</time>
      </trkpt>
      <trkpt lat="38.722129" lon="-5.214764">
        <ele>563.0</ele>
        <time>2010-03-19T08:53:37Z</time>
      </trkpt>
      <trkpt lat="38.722480" lon="-5.214292">
        <ele>551.4</ele>
        <time>2010-03-19T08:54:09Z</time>
      </trkpt>
      <trkpt lat="38.722241" lon="-5.213617">
        <ele>552.4</ele>
        <time>2010-03-19T08:54:26Z</time>
      </trkpt>
      <trkpt lat="38.722242" lon="-5.212582">
        <ele>554.8</ele>
        <time>2010-03-19T08:55:09Z</time>
      </trkpt>
      <trkpt lat="38.722353" lon="-5.212317">
        <ele>553.4</ele>
        <time>2010-03-19T08:55:17Z</time>
      </trkpt>
      <trkpt lat="38.722357" lon="-5.212087">
        <ele>574.0</ele>
        <time>2010-03-19T08:56:57Z</time>
      </trkpt>
      <trkpt lat="38.722362" lon="-5.211857">
        <ele>563.0</ele>
        <time>2010-03-19T10:13:12Z</time>
      </trkpt>
      <trkpt lat="38.722437" lon="-5.211675">
        <ele>566.3</ele>
        <time>2010-03-19T10:13:40Z</time>
      </trkpt>
      <trkpt lat="38.722440" lon="-5.211537">
        <ele>567.8</ele>
        <time>2010-03-19T10:13:53Z</time>
      </trkpt>
      <trkpt lat="38.722520" lon="-5.211310">
        <ele>572.6</ele>
        <time>2010-03-19T10:14:17Z</time>
      </trkpt>
      <trkpt lat="38.722500" lon="-5.211220">
        <ele>574.5</ele>
        <time>2010-03-19T10:14:40Z</time>
      </trkpt>
      <trkpt lat="38.722490" lon="-5.210880">
        <ele>575.0</ele>
        <time>2010-03-19T10:14:59Z</time>
      </trkpt>
      <trkpt lat="38.722470" lon="-5.210890">
        <ele>576.9</ele>
        <time>2010-03-19T10:15:11Z</time>
      </trkpt>
      <trkpt lat="38.722480" lon="-5.210830">
        <ele>577.4</ele>
        <time>2010-03-19T10:15:15Z</time>
      </trkpt>
      <trkpt lat="38.722520" lon="-5.210420">
        <ele>579.3</ele>
        <time>2010-03-19T10:15:39Z</time>
      </trkpt>
      <trkpt lat="38.722520" lon="-5.210120">
        <ele>580.3</ele>
        <time>2010-03-19T10:15:58Z</time>
      </trkpt>
      <trkpt lat="38.722520" lon="-5.209750">
        <ele>580.8</ele>
        <time>2010-03-19T10:16:22Z</time>
      </trkpt>
      <trkpt lat="38.722530" lon="-5.209440">
        <ele>582.2</ele>
        <time>2010-03-19T10:16:45Z</time>
      </trkpt>
      <trkpt lat="38.722520" lon="-5.209080">
        <ele>585.1</ele>
        <time>2010-03-19T10:17:10Z</time>
      </trkpt>
      <trkpt lat="38.722520" lon="-5.208870">
        <ele>587.5</ele>
        <time>2010-03-19T10:17:27Z</time>
      </trkpt>
      <trkpt lat="38.722530" lon="-5.208520">
        <ele>589.4</ele>
        <time>2010-03-19T10:17:54Z</time>
      </trkpt>
      <trkpt lat="38.722550" lon="-5.208170">
        <ele>589.9</ele>
        <time>2010-03-19T10:18:20Z</time>
      </trkpt>
      <trkpt lat="38.722580" lon="-5.207880">
        <ele>588.9</ele>
        <time>2010-03-19T10:18:44Z</time>
      </trkpt>
      <trkpt lat="38.722560" lon="-5.207530">
        <ele>590.4</ele>
        <time>2010-03-19T10:19:07Z</time>
      </trkpt>
      <trkpt lat="38.722470" lon="-5.207200">
        <ele>589.9</ele>
        <time>2010-03-19T10:19:35Z</time>
      </trkpt>
      <trkpt lat="38.722390" lon="-5.206550">
        <ele>589.4</ele>
        <time>2010-03-19T10:20:08Z</time>
      </trkpt>
      <trkpt lat="38.722380" lon="-5.206520">
        <ele>591.8</ele>
        <time>2010-03-19T10:20:28Z</time>
      </trkpt>
      <trkpt lat="38.722300" lon="-5.206300">
        <ele>589.9</ele>
        <time>2010-03-19T10:21:05Z</time>
      </trkpt>
      <trkpt lat="38.722210" lon="-5.205960">
        <ele>592.8</ele>
        <time>2010-03-19T10:21:29Z</time>
      </trkpt>
      <trkpt lat="38.722120" lon="-5.205720">
        <ele>595.7</ele>
        <time>2010-03-19T10:21:45Z</time>
      </trkpt>
      <trkpt lat="38.721950" lon="-5.205510">
        <ele>597.1</ele>
        <time>2010-03-19T10:22:05Z</time>
      </trkpt>
      <trkpt lat="38.721870" lon="-5.205450">
        <ele>598.1</ele>
        <time>2010-03-19T10:22:12Z</time>
      </trkpt>
      <trkpt lat="38.721630" lon="-5.205290">
        <ele>598.6</ele>
        <time>2010-03-19T10:22:35Z</time>
      </trkpt>
      <trkpt lat="38.721420" lon="-5.205190">
        <ele>598.1</ele>
        <time>2010-03-19T10:22:55Z</time>
      </trkpt>
      <trkpt lat="38.720880" lon="-5.204930">
        <ele>594.7</ele>
        <time>2010-03-19T10:23:47Z</time>
      </trkpt>
      <trkpt lat="38.720550" lon="-5.204900">
        <ele>592.8</ele>
        <time>2010-03-19T10:24:12Z</time>
      </trkpt>
      <trkpt lat="38.720080" lon="-5.204830">
        <ele>588.9</ele>
        <time>2010-03-19T10:24:54Z</time>
      </trkpt>
      <trkpt lat="38.719400" lon="-5.204810">
        <ele>583.2</ele>
        <time>2010-03-19T10:25:53Z</time>
      </trkpt>
      <trkpt lat="38.719290" lon="-5.204800">
        <ele>582.7</ele>
        <time>2010-03-19T10:26:15Z</time>
      </trkpt>
      <trkpt lat="38.718750" lon="-5.204600">
        <ele>576.9</ele>
        <time>2010-03-19T10:27:09Z</time>
      </trkpt>
      <trkpt lat="38.718480" lon="-5.204480">
        <ele>576.4</ele>
        <time>2010-03-19T10:27:35Z</time>
      </trkpt>
      <trkpt lat="38.718390" lon="-5.204430">
        <ele>574.5</ele>
        <time>2010-03-19T10:27:45Z</time>
      </trkpt>
      <trkpt lat="38.718100" lon="-5.204330">
        <ele>575.5</ele>
        <time>2010-03-19T10:28:12Z</time>
      </trkpt>
      <trkpt lat="38.717880" lon="-5.204170">
        <ele>575.0</ele>
        <time>2010-03-19T10:28:35Z</time>
      </trkpt>
      <trkpt lat="38.717670" lon="-5.204020">
        <ele>571.2</ele>
        <time>2010-03-19T10:29:01Z</time>
      </trkpt>
      <trkpt lat="38.717570" lon="-5.203980">
        <ele>567.8</ele>
        <time>2010-03-19T10:29:17Z</time>
      </trkpt>
      <trkpt lat="38.717500" lon="-5.203940">
        <ele>569.2</ele>
        <time>2010-03-19T10:29:36Z</time>
      </trkpt>
      <trkpt lat="38.717430" lon="-5.203900">
        <ele>565.9</ele>
        <time>2010-03-19T10:29:51Z</time>
      </trkpt>
      <trkpt lat="38.717230" lon="-5.203740">
        <ele>563.5</ele>
        <time>2010-03-19T10:30:11Z</time>
      </trkpt>
      <trkpt lat="38.717050" lon="-5.203660">
        <ele>560.6</ele>
        <time>2010-03-19T10:30:30Z</time>
      </trkpt>
      <trkpt lat="38.716840" lon="-5.203570">
        <ele>559.2</ele>
        <time>2010-03-19T10:30:50Z</time>
      </trkpt>
      <trkpt lat="38.716620" lon="-5.203430">
        <ele>551.9</ele>
        <time>2010-03-19T10:31:12Z</time>
      </trkpt>
      <trkpt lat="38.716380" lon="-5.203260">
        <ele>548.6</ele>
        <time>2010-03-19T10:31:35Z</time>
      </trkpt>
      <trkpt lat="38.716150" lon="-5.203060">
        <ele>556.7</ele>
        <time>2010-03-19T10:31:58Z</time>
      </trkpt>
      <trkpt lat="38.715930" lon="-5.202870">
        <ele>556.3</ele>
        <time>2010-03-19T10:32:18Z</time>
      </trkpt>
      <trkpt lat="38.715700" lon="-5.202650">
        <ele>553.4</ele>
        <time>2010-03-19T10:32:44Z</time>
      </trkpt>
      <trkpt lat="38.715490" lon="-5.202430">
        <ele>554.3</ele>
        <time>2010-03-19T10:33:04Z</time>
      </trkpt>
      <trkpt lat="38.715140" lon="-5.202130">
        <ele>553.4</ele>
        <time>2010-03-19T10:33:43Z</time>
      </trkpt>
      <trkpt lat="38.714930" lon="-5.201930">
        <ele>553.9</ele>
        <time>2010-03-19T10:34:06Z</time>
      </trkpt>
      <trkpt lat="38.714510" lon="-5.201560">
        <ele>562.0</ele>
        <time>2010-03-19T10:34:48Z</time>
      </trkpt>
      <trkpt lat="38.714330" lon="-5.201400">
        <ele>562.0</ele>
        <time>2010-03-19T10:35:07Z</time>
      </trkpt>
      <trkpt lat="38.714190" lon="-5.201200">
        <ele>560.6</ele>
        <time>2010-03-19T10:35:27Z</time>
      </trkpt>
      <trkpt lat="38.714010" lon="-5.201030">
        <ele>562.0</ele>
        <time>2010-03-19T10:35:49Z</time>
      </trkpt>
      <trkpt lat="38.713800" lon="-5.200860">
        <ele>561.5</ele>
        <time>2010-03-19T10:36:12Z</time>
      </trkpt>
      <trkpt lat="38.713600" lon="-5.200680">
        <ele>562.0</ele>
        <time>2010-03-19T10:36:33Z</time>
      </trkpt>
      <trkpt lat="38.713560" lon="-5.200650">
        <ele>556.7</ele>
        <time>2010-03-19T10:36:55Z</time>
      </trkpt>
      <trkpt lat="38.713440" lon="-5.200530">
        <ele>553.4</ele>
        <time>2010-03-19T10:37:11Z</time>
      </trkpt>
      <trkpt lat="38.713390" lon="-5.200480">
        <ele>553.4</ele>
        <time>2010-03-19T10:37:30Z</time>
      </trkpt>
      <trkpt lat="38.713390" lon="-5.200490">
        <ele>553.9</ele>
        <time>2010-03-19T10:37:57Z</time>
      </trkpt>
      <trkpt lat="38.713210" lon="-5.200570">
        <ele>553.9</ele>
        <time>2010-03-19T10:38:17Z</time>
      </trkpt>
      <trkpt lat="38.713160" lon="-5.200520">
        <ele>554.3</ele>
        <time>2010-03-19T10:38:31Z</time>
      </trkpt>
      <trkpt lat="38.713150" lon="-5.200510">
        <ele>554.8</ele>
        <time>2010-03-19T10:38:47Z</time>
      </trkpt>
      <trkpt lat="38.713120" lon="-5.200480">
        <ele>556.7</ele>
        <time>2010-03-19T10:39:22Z</time>
      </trkpt>
      <trkpt lat="38.712880" lon="-5.200360">
        <ele>556.7</ele>
        <time>2010-03-19T10:39:42Z</time>
      </trkpt>
      <trkpt lat="38.712700" lon="-5.200230">
        <ele>556.7</ele>
        <time>2010-03-19T10:40:01Z</time>
      </trkpt>
      <trkpt lat="38.712600" lon="-5.200170">
        <ele>556.7</ele>
        <time>2010-03-19T10:40:12Z</time>
      </trkpt>
      <trkpt lat="38.712360" lon="-5.200060">
        <ele>557.2</ele>
        <time>2010-03-19T10:40:32Z</time>
      </trkpt>
      <trkpt lat="38.712210" lon="-5.199970">
        <ele>558.7</ele>
        <time>2010-03-19T10:40:48Z</time>
      </trkpt>
      <trkpt lat="38.712000" lon="-5.199850">
        <ele>559.6</ele>
        <time>2010-03-19T10:41:10Z</time>
      </trkpt>
      <trkpt lat="38.711850" lon="-5.199780">
        <ele>558.7</ele>
        <time>2010-03-19T10:41:25Z</time>
      </trkpt>
      <trkpt lat="38.711680" lon="-5.199690">
        <ele>559.6</ele>
        <time>2010-03-19T10:41:42Z</time>
      </trkpt>
      <trkpt lat="38.711480" lon="-5.199600">
        <ele>555.8</ele>
        <time>2010-03-19T10:42:03Z</time>
      </trkpt>
      <trkpt lat="38.711190" lon="-5.199510">
        <ele>555.3</ele>
        <time>2010-03-19T10:42:27Z</time>
      </trkpt>
      <trkpt lat="38.711020" lon="-5.199490">
        <ele>556.7</ele>
        <time>2010-03-19T10:42:45Z</time>
      </trkpt>
      <trkpt lat="38.710980" lon="-5.199480">
        <ele>555.8</ele>
        <time>2010-03-19T10:42:49Z</time>
      </trkpt>
      <trkpt lat="38.710470" lon="-5.199320">
        <ele>553.9</ele>
        <time>2010-03-19T10:43:39Z</time>
      </trkpt>
      <trkpt lat="38.710350" lon="-5.199280">
        <ele>550.0</ele>
        <time>2010-03-19T10:44:00Z</time>
      </trkpt>
      <trkpt lat="38.710320" lon="-5.199270">
        <ele>549.5</ele>
        <time>2010-03-19T10:44:04Z</time>
      </trkpt>
      <trkpt lat="38.710090" lon="-5.199190">
        <ele>549.0</ele>
        <time>2010-03-19T10:44:24Z</time>
      </trkpt>
      <trkpt lat="38.709800" lon="-5.199190">
        <ele>548.1</ele>
        <time>2010-03-19T10:44:49Z</time>
      </trkpt>
      <trkpt lat="38.709450" lon="-5.199320">
        <ele>544.7</ele>
        <time>2010-03-19T10:45:32Z</time>
      </trkpt>
      <trkpt lat="38.709250" lon="-5.199410">
        <ele>548.1</ele>
        <time>2010-03-19T10:45:48Z</time>
      </trkpt>
      <trkpt lat="38.708750" lon="-5.199430">
        <ele>547.6</ele>
        <time>2010-03-19T10:46:34Z</time>
      </trkpt>
      <trkpt lat="38.708530" lon="-5.199390">
        <ele>546.2</ele>
        <time>2010-03-19T10:46:52Z</time>
      </trkpt>
      <trkpt lat="38.708280" lon="-5.199450">
        <ele>547.6</ele>
        <time>2010-03-19T10:47:13Z</time>
      </trkpt>
      <trkpt lat="38.708090" lon="-5.199490">
        <ele>547.1</ele>
        <time>2010-03-19T10:47:32Z</time>
      </trkpt>
      <trkpt lat="38.707820" lon="-5.199590">
        <ele>547.6</ele>
        <time>2010-03-19T10:47:56Z</time>
      </trkpt>
      <trkpt lat="38.707620" lon="-5.199680">
        <ele>544.7</ele>
        <time>2010-03-19T10:48:18Z</time>
      </trkpt>
      <trkpt lat="38.707400" lon="-5.199820">
        <ele>541.8</ele>
        <time>2010-03-19T10:48:38Z</time>
      </trkpt>
      <trkpt lat="38.707210" lon="-5.199900">
        <ele>542.3</ele>
        <time>2010-03-19T10:48:57Z</time>
      </trkpt>
      <trkpt lat="38.706980" lon="-5.199930">
        <ele>543.8</ele>
        <time>2010-03-19T10:49:19Z</time>
      </trkpt>
      <trkpt lat="38.706650" lon="-5.199920">
        <ele>546.2</ele>
        <time>2010-03-19T10:49:51Z</time>
      </trkpt>
      <trkpt lat="38.706410" lon="-5.200010">
        <ele>548.6</ele>
        <time>2010-03-19T10:50:15Z</time>
      </trkpt>
      <trkpt lat="38.706220" lon="-5.200060">
        <ele>548.6</ele>
        <time>2010-03-19T10:50:37Z</time>
      </trkpt>
      <trkpt lat="38.705990" lon="-5.200080">
        <ele>548.1</ele>
        <time>2010-03-19T10:50:59Z</time>
      </trkpt>
      <trkpt lat="38.705750" lon="-5.200140">
        <ele>548.1</ele>
        <time>2010-03-19T10:51:19Z</time>
      </trkpt>
      <trkpt lat="38.705560" lon="-5.200160">
        <ele>547.6</ele>
        <time>2010-03-19T10:51:36Z</time>
      </trkpt>
      <trkpt lat="38.705310" lon="-5.200200">
        <ele>547.1</ele>
        <time>2010-03-19T10:51:58Z</time>
      </trkpt>
      <trkpt lat="38.705070" lon="-5.200210">
        <ele>547.6</ele>
        <time>2010-03-19T10:52:21Z</time>
      </trkpt>
      <trkpt lat="38.705010" lon="-5.200210">
        <ele>547.6</ele>
        <time>2010-03-19T10:52:26Z</time>
      </trkpt>
      <trkpt lat="38.704940" lon="-5.200180">
        <ele>547.6</ele>
        <time>2010-03-19T10:52:40Z</time>
      </trkpt>
      <trkpt lat="38.704860" lon="-5.200180">
        <ele>549.5</ele>
        <time>2010-03-19T10:53:11Z</time>
      </trkpt>
      <trkpt lat="38.704630" lon="-5.200250">
        <ele>551.0</ele>
        <time>2010-03-19T10:53:31Z</time>
      </trkpt>
      <trkpt lat="38.704320" lon="-5.200280">
        <ele>551.4</ele>
        <time>2010-03-19T10:54:10Z</time>
      </trkpt>
      <trkpt lat="38.704160" lon="-5.200320">
        <ele>546.7</ele>
        <time>2010-03-19T10:54:35Z</time>
      </trkpt>
      <trkpt lat="38.703960" lon="-5.200350">
        <ele>549.0</ele>
        <time>2010-03-19T10:54:54Z</time>
      </trkpt>
      <trkpt lat="38.703770" lon="-5.200350">
        <ele>550.0</ele>
        <time>2010-03-19T10:55:11Z</time>
      </trkpt>
      <trkpt lat="38.703510" lon="-5.200360">
        <ele>551.9</ele>
        <time>2010-03-19T10:55:34Z</time>
      </trkpt>
      <trkpt lat="38.703360" lon="-5.200400">
        <ele>553.9</ele>
        <time>2010-03-19T10:55:53Z</time>
      </trkpt>
      <trkpt lat="38.703270" lon="-5.200410">
        <ele>552.4</ele>
        <time>2010-03-19T10:56:05Z</time>
      </trkpt>
      <trkpt lat="38.703060" lon="-5.200480">
        <ele>552.9</ele>
        <time>2010-03-19T10:56:24Z</time>
      </trkpt>
      <trkpt lat="38.702860" lon="-5.200590">
        <ele>552.9</ele>
        <time>2010-03-19T10:56:43Z</time>
      </trkpt>
      <trkpt lat="38.702670" lon="-5.200670">
        <ele>551.0</ele>
        <time>2010-03-19T10:57:02Z</time>
      </trkpt>
      <trkpt lat="38.702480" lon="-5.200790">
        <ele>551.4</ele>
        <time>2010-03-19T10:57:21Z</time>
      </trkpt>
      <trkpt lat="38.702300" lon="-5.200840">
        <ele>550.5</ele>
        <time>2010-03-19T10:57:37Z</time>
      </trkpt>
      <trkpt lat="38.702100" lon="-5.200870">
        <ele>554.3</ele>
        <time>2010-03-19T10:57:56Z</time>
      </trkpt>
      <trkpt lat="38.701910" lon="-5.200890">
        <ele>555.8</ele>
        <time>2010-03-19T10:58:12Z</time>
      </trkpt>
      <trkpt lat="38.701780" lon="-5.200880">
        <ele>557.7</ele>
        <time>2010-03-19T10:58:30Z</time>
      </trkpt>
      <trkpt lat="38.701730" lon="-5.200810">
        <ele>559.6</ele>
        <time>2010-03-19T10:58:38Z</time>
      </trkpt>
      <trkpt lat="38.701580" lon="-5.200680">
        <ele>559.6</ele>
        <time>2010-03-19T10:58:57Z</time>
      </trkpt>
      <trkpt lat="38.701400" lon="-5.200600">
        <ele>560.6</ele>
        <time>2010-03-19T10:59:15Z</time>
      </trkpt>
      <trkpt lat="38.701230" lon="-5.200580">
        <ele>563.0</ele>
        <time>2010-03-19T10:59:34Z</time>
      </trkpt>
      <trkpt lat="38.701080" lon="-5.200610">
        <ele>565.9</ele>
        <time>2010-03-19T10:59:52Z</time>
      </trkpt>
      <trkpt lat="38.700990" lon="-5.200640">
        <ele>567.3</ele>
        <time>2010-03-19T11:00:14Z</time>
      </trkpt>
      <trkpt lat="38.700790" lon="-5.200680">
        <ele>567.8</ele>
        <time>2010-03-19T11:00:34Z</time>
      </trkpt>
      <trkpt lat="38.700660" lon="-5.200730">
        <ele>568.8</ele>
        <time>2010-03-19T11:00:47Z</time>
      </trkpt>
      <trkpt lat="38.700640" lon="-5.200740">
        <ele>569.7</ele>
        <time>2010-03-19T11:00:50Z</time>
      </trkpt>
      <trkpt lat="38.700440" lon="-5.200860">
        <ele>571.7</ele>
        <time>2010-03-19T11:01:10Z</time>
      </trkpt>
      <trkpt lat="38.700310" lon="-5.201000">
        <ele>575.0</ele>
        <time>2010-03-19T11:01:29Z</time>
      </trkpt>
      <trkpt lat="38.700270" lon="-5.201040">
        <ele>573.6</ele>
        <time>2010-03-19T11:01:41Z</time>
      </trkpt>
      <trkpt lat="38.700230" lon="-5.201090">
        <ele>574.0</ele>
        <time>2010-03-19T11:01:53Z</time>
      </trkpt>
      <trkpt lat="38.700170" lon="-5.201120">
        <ele>578.4</ele>
        <time>2010-03-19T11:02:15Z</time>
      </trkpt>
      <trkpt lat="38.700110" lon="-5.201090">
        <ele>577.4</ele>
        <time>2010-03-19T11:02:27Z</time>
      </trkpt>
      <trkpt lat="38.700110" lon="-5.201090">
        <ele>577.4</ele>
        <time>2010-03-19T11:02:56Z</time>
      </trkpt>
      <trkpt lat="38.700120" lon="-5.201150">
        <ele>577.4</ele>
        <time>2010-03-19T11:03:06Z</time>
      </trkpt>
      <trkpt lat="38.700100" lon="-5.201080">
        <ele>577.9</ele>
        <time>2010-03-19T11:03:21Z</time>
      </trkpt>
      <trkpt lat="38.700120" lon="-5.201120">
        <ele>578.4</ele>
        <time>2010-03-19T11:03:40Z</time>
      </trkpt>
      <trkpt lat="38.700180" lon="-5.201100">
        <ele>576.4</ele>
        <time>2010-03-19T11:04:11Z</time>
      </trkpt>
      <trkpt lat="38.700190" lon="-5.201080">
        <ele>572.6</ele>
        <time>2010-03-19T11:04:29Z</time>
      </trkpt>
      <trkpt lat="38.700230" lon="-5.201040">
        <ele>570.2</ele>
        <time>2010-03-19T11:04:57Z</time>
      </trkpt>
      <trkpt lat="38.700210" lon="-5.201050">
        <ele>570.7</ele>
        <time>2010-03-19T11:05:16Z</time>
      </trkpt>
      <trkpt lat="38.700230" lon="-5.201070">
        <ele>569.2</ele>
        <time>2010-03-19T11:05:29Z</time>
      </trkpt>
      <trkpt lat="38.700210" lon="-5.201070">
        <ele>568.8</ele>
        <time>2010-03-19T11:05:32Z</time>
      </trkpt>
      <trkpt lat="38.700150" lon="-5.201150">
        <ele>568.8</ele>
        <time>2010-03-19T11:05:47Z</time>
      </trkpt>
      <trkpt lat="38.700180" lon="-5.201180">
        <ele>568.8</ele>
        <time>2010-03-19T11:05:56Z</time>
      </trkpt>
      <trkpt lat="38.700130" lon="-5.201210">
        <ele>570.2</ele>
        <time>2010-03-19T11:06:00Z</time>
      </trkpt>
      <trkpt lat="38.700000" lon="-5.201420">
        <ele>566.3</ele>
        <time>2010-03-19T11:06:21Z</time>
      </trkpt>
      <trkpt lat="38.700010" lon="-5.201440">
        <ele>567.3</ele>
        <time>2010-03-19T11:06:34Z</time>
      </trkpt>
      <trkpt lat="38.700010" lon="-5.201470">
        <ele>570.2</ele>
        <time>2010-03-19T11:06:42Z</time>
      </trkpt>
      <trkpt lat="38.700000" lon="-5.201460">
        <ele>569.2</ele>
        <time>2010-03-19T11:06:57Z</time>
      </trkpt>
      <trkpt lat="38.699890" lon="-5.201440">
        <ele>570.7</ele>
        <time>2010-03-19T11:07:13Z</time>
      </trkpt>
      <trkpt lat="38.699860" lon="-5.201460">
        <ele>571.2</ele>
        <time>2010-03-19T11:07:35Z</time>
      </trkpt>
      <trkpt lat="38.699860" lon="-5.201460">
        <ele>570.2</ele>
        <time>2010-03-19T11:07:58Z</time>
      </trkpt>
      <trkpt lat="38.699920" lon="-5.201540">
        <ele>568.8</ele>
        <time>2010-03-19T11:08:25Z</time>
      </trkpt>
      <trkpt lat="38.699930" lon="-5.201460">
        <ele>562.5</ele>
        <time>2010-03-19T11:08:42Z</time>
      </trkpt>
      <trkpt lat="38.699940" lon="-5.201490">
        <ele>563.9</ele>
        <time>2010-03-19T11:08:56Z</time>
      </trkpt>
      <trkpt lat="38.699910" lon="-5.201510">
        <ele>565.4</ele>
        <time>2010-03-19T11:09:00Z</time>
      </trkpt>
      <trkpt lat="38.699900" lon="-5.201580">
        <ele>562.5</ele>
        <time>2010-03-19T11:09:16Z</time>
      </trkpt>
      <trkpt lat="38.699860" lon="-5.201620">
        <ele>563.0</ele>
        <time>2010-03-19T11:09:22Z</time>
      </trkpt>
      <trkpt lat="38.699770" lon="-5.201750">
        <ele>563.9</ele>
        <time>2010-03-19T11:09:39Z</time>
      </trkpt>
      <trkpt lat="38.699690" lon="-5.201860">
        <ele>561.5</ele>
        <time>2010-03-19T11:09:54Z</time>
      </trkpt>
      <trkpt lat="38.699500" lon="-5.202060">
        <ele>561.1</ele>
        <time>2010-03-19T11:10:17Z</time>
      </trkpt>
      <trkpt lat="38.699470" lon="-5.202060">
        <ele>559.2</ele>
        <time>2010-03-19T11:10:32Z</time>
      </trkpt>
      <trkpt lat="38.699470" lon="-5.202060">
        <ele>559.6</ele>
        <time>2010-03-19T11:10:33Z</time>
      </trkpt>
      <trkpt lat="38.699440" lon="-5.202120">
        <ele>559.6</ele>
        <time>2010-03-19T11:10:37Z</time>
      </trkpt>
      <trkpt lat="38.699280" lon="-5.202270">
        <ele>556.3</ele>
        <time>2010-03-19T11:10:56Z</time>
      </trkpt>
      <trkpt lat="38.699120" lon="-5.202410">
        <ele>551.9</ele>
        <time>2010-03-19T11:11:14Z</time>
      </trkpt>
      <trkpt lat="38.698950" lon="-5.202530">
        <ele>549.5</ele>
        <time>2010-03-19T11:11:30Z</time>
      </trkpt>
      <trkpt lat="38.698770" lon="-5.202680">
        <ele>547.6</ele>
        <time>2010-03-19T11:11:49Z</time>
      </trkpt>
      <trkpt lat="38.698590" lon="-5.202860">
        <ele>546.7</ele>
        <time>2010-03-19T11:12:09Z</time>
      </trkpt>
      <trkpt lat="38.698500" lon="-5.202940">
        <ele>546.2</ele>
        <time>2010-03-19T11:12:18Z</time>
      </trkpt>
      <trkpt lat="38.698420" lon="-5.203020">
        <ele>543.8</ele>
        <time>2010-03-19T11:12:35Z</time>
      </trkpt>
      <trkpt lat="38.698360" lon="-5.203100">
        <ele>543.8</ele>
        <time>2010-03-19T11:12:48Z</time>
      </trkpt>
      <trkpt lat="38.698300" lon="-5.203160">
        <ele>538.9</ele>
        <time>2010-03-19T11:16:31Z</time>
      </trkpt>
      <trkpt lat="38.698130" lon="-5.203250">
        <ele>538.0</ele>
        <time>2010-03-19T11:16:48Z</time>
      </trkpt>
      <trkpt lat="38.697980" lon="-5.203320">
        <ele>531.8</ele>
        <time>2010-03-19T11:17:06Z</time>
      </trkpt>
      <trkpt lat="38.697840" lon="-5.203350">
        <ele>526.5</ele>
        <time>2010-03-19T11:17:25Z</time>
      </trkpt>
      <trkpt lat="38.697670" lon="-5.203460">
        <ele>529.3</ele>
        <time>2010-03-19T11:17:41Z</time>
      </trkpt>
      <trkpt lat="38.697590" lon="-5.203490">
        <ele>529.8</ele>
        <time>2010-03-19T11:17:49Z</time>
      </trkpt>
      <trkpt lat="38.697560" lon="-5.203490">
        <ele>528.9</ele>
        <time>2010-03-19T11:17:52Z</time>
      </trkpt>
      <trkpt lat="38.697400" lon="-5.203490">
        <ele>521.7</ele>
        <time>2010-03-19T11:18:11Z</time>
      </trkpt>
      <trkpt lat="38.697180" lon="-5.203570">
        <ele>515.4</ele>
        <time>2010-03-19T11:18:34Z</time>
      </trkpt>
      <trkpt lat="38.697090" lon="-5.203600">
        <ele>514.4</ele>
        <time>2010-03-19T11:18:50Z</time>
      </trkpt>
      <trkpt lat="38.696890" lon="-5.203670">
        <ele>505.8</ele>
        <time>2010-03-19T11:19:10Z</time>
      </trkpt>
      <trkpt lat="38.696690" lon="-5.203760">
        <ele>503.9</ele>
        <time>2010-03-19T11:19:29Z</time>
      </trkpt>
      <trkpt lat="38.696550" lon="-5.203850">
        <ele>510.6</ele>
        <time>2010-03-19T11:19:45Z</time>
      </trkpt>
      <trkpt lat="38.696440" lon="-5.203880">
        <ele>509.2</ele>
        <time>2010-03-19T11:19:56Z</time>
      </trkpt>
      <trkpt lat="38.696390" lon="-5.203820">
        <ele>507.2</ele>
        <time>2010-03-19T11:20:10Z</time>
      </trkpt>
      <trkpt lat="38.696340" lon="-5.203910">
        <ele>508.7</ele>
        <time>2010-03-19T11:20:15Z</time>
      </trkpt>
      <trkpt lat="38.696090" lon="-5.203960">
        <ele>510.1</ele>
        <time>2010-03-19T11:20:39Z</time>
      </trkpt>
      <trkpt lat="38.696010" lon="-5.203970">
        <ele>508.2</ele>
        <time>2010-03-19T11:20:47Z</time>
      </trkpt>
      <trkpt lat="38.695850" lon="-5.204110">
        <ele>506.3</ele>
        <time>2010-03-19T11:21:05Z</time>
      </trkpt>
      <trkpt lat="38.695670" lon="-5.204240">
        <ele>504.4</ele>
        <time>2010-03-19T11:21:25Z</time>
      </trkpt>
      <trkpt lat="38.695550" lon="-5.204370">
        <ele>502.9</ele>
        <time>2010-03-19T11:21:44Z</time>
      </trkpt>
      <trkpt lat="38.695560" lon="-5.204350">
        <ele>499.5</ele>
        <time>2010-03-19T11:22:08Z</time>
      </trkpt>
      <trkpt lat="38.695560" lon="-5.204350">
        <ele>500.5</ele>
        <time>2010-03-19T11:23:05Z</time>
      </trkpt>
      <trkpt lat="38.695420" lon="-5.204430">
        <ele>503.4</ele>
        <time>2010-03-19T11:23:29Z</time>
      </trkpt>
      <trkpt lat="38.695250" lon="-5.204510">
        <ele>500.0</ele>
        <time>2010-03-19T11:23:44Z</time>
      </trkpt>
      <trkpt lat="38.695040" lon="-5.204570">
        <ele>496.2</ele>
        <time>2010-03-19T11:24:03Z</time>
      </trkpt>
      <trkpt lat="38.694820" lon="-5.204610">
        <ele>489.4</ele>
        <time>2010-03-19T11:24:23Z</time>
      </trkpt>
      <trkpt lat="38.694620" lon="-5.204690">
        <ele>489.9</ele>
        <time>2010-03-19T11:24:41Z</time>
      </trkpt>
      <trkpt lat="38.694410" lon="-5.204680">
        <ele>485.6</ele>
        <time>2010-03-19T11:25:01Z</time>
      </trkpt>
      <trkpt lat="38.694220" lon="-5.204680">
        <ele>483.7</ele>
        <time>2010-03-19T11:25:17Z</time>
      </trkpt>
      <trkpt lat="38.694010" lon="-5.204640">
        <ele>481.8</ele>
        <time>2010-03-19T11:25:35Z</time>
      </trkpt>
      <trkpt lat="38.693840" lon="-5.204620">
        <ele>479.4</ele>
        <time>2010-03-19T11:25:53Z</time>
      </trkpt>
      <trkpt lat="38.693820" lon="-5.204600">
        <ele>478.4</ele>
        <time>2010-03-19T11:25:55Z</time>
      </trkpt>
      <trkpt lat="38.693620" lon="-5.204510">
        <ele>477.0</ele>
        <time>2010-03-19T11:26:17Z</time>
      </trkpt>
      <trkpt lat="38.693450" lon="-5.204370">
        <ele>475.0</ele>
        <time>2010-03-19T11:26:37Z</time>
      </trkpt>
      <trkpt lat="38.693270" lon="-5.204250">
        <ele>473.1</ele>
        <time>2010-03-19T11:26:53Z</time>
      </trkpt>
      <trkpt lat="38.693090" lon="-5.204150">
        <ele>471.7</ele>
        <time>2010-03-19T11:27:12Z</time>
      </trkpt>
      <trkpt lat="38.692920" lon="-5.204040">
        <ele>470.7</ele>
        <time>2010-03-19T11:27:32Z</time>
      </trkpt>
      <trkpt lat="38.692900" lon="-5.203990">
        <ele>470.2</ele>
        <time>2010-03-19T11:27:46Z</time>
      </trkpt>
      <trkpt lat="38.692870" lon="-5.204030">
        <ele>477.0</ele>
        <time>2010-03-19T11:29:04Z</time>
      </trkpt>
      <trkpt lat="38.692860" lon="-5.204080">
        <ele>479.8</ele>
        <time>2010-03-19T11:29:27Z</time>
      </trkpt>
      <trkpt lat="38.692800" lon="-5.204100">
        <ele>482.2</ele>
        <time>2010-03-19T11:29:39Z</time>
      </trkpt>
      <trkpt lat="38.692670" lon="-5.204150">
        <ele>476.5</ele>
        <time>2010-03-19T11:29:56Z</time>
      </trkpt>
      <trkpt lat="38.692520" lon="-5.204210">
        <ele>473.1</ele>
        <time>2010-03-19T11:30:16Z</time>
      </trkpt>
      <trkpt lat="38.692540" lon="-5.204240">
        <ele>471.2</ele>
        <time>2010-03-19T11:30:35Z</time>
      </trkpt>
      <trkpt lat="38.692510" lon="-5.204240">
        <ele>468.8</ele>
        <time>2010-03-19T11:30:52Z</time>
      </trkpt>
      <trkpt lat="38.692510" lon="-5.204260">
        <ele>468.8</ele>
        <time>2010-03-19T11:31:21Z</time>
      </trkpt>
      <trkpt lat="38.692440" lon="-5.204240">
        <ele>468.3</ele>
        <time>2010-03-19T11:31:58Z</time>
      </trkpt>
      <trkpt lat="38.692400" lon="-5.204280">
        <ele>467.3</ele>
        <time>2010-03-19T11:32:27Z</time>
      </trkpt>
      <trkpt lat="38.692400" lon="-5.204220">
        <ele>463.5</ele>
        <time>2010-03-19T11:32:47Z</time>
      </trkpt>
      <trkpt lat="38.692360" lon="-5.204190">
        <ele>463.0</ele>
        <time>2010-03-19T11:32:51Z</time>
      </trkpt>
      <trkpt lat="38.692150" lon="-5.204130">
        <ele>463.0</ele>
        <time>2010-03-19T11:33:11Z</time>
      </trkpt>
      <trkpt lat="38.691960" lon="-5.204070">
        <ele>464.0</ele>
        <time>2010-03-19T11:33:30Z</time>
      </trkpt>
      <trkpt lat="38.691750" lon="-5.204010">
        <ele>463.0</ele>
        <time>2010-03-19T11:33:50Z</time>
      </trkpt>
      <trkpt lat="38.691520" lon="-5.204030">
        <ele>460.1</ele>
        <time>2010-03-19T11:34:08Z</time>
      </trkpt>
      <trkpt lat="38.691410" lon="-5.204130">
        <ele>473.1</ele>
        <time>2010-03-19T11:34:31Z</time>
      </trkpt>
      <trkpt lat="38.691170" lon="-5.204130">
        <ele>469.7</ele>
        <time>2010-03-19T11:34:50Z</time>
      </trkpt>
      <trkpt lat="38.690930" lon="-5.204160">
        <ele>468.3</ele>
        <time>2010-03-19T11:35:10Z</time>
      </trkpt>
      <trkpt lat="38.690730" lon="-5.204190">
        <ele>464.9</ele>
        <time>2010-03-19T11:35:28Z</time>
      </trkpt>
      <trkpt lat="38.690440" lon="-5.204210">
        <ele>459.6</ele>
        <time>2010-03-19T11:35:49Z</time>
      </trkpt>
      <trkpt lat="38.690240" lon="-5.204250">
        <ele>458.7</ele>
        <time>2010-03-19T11:36:05Z</time>
      </trkpt>
      <trkpt lat="38.690020" lon="-5.204320">
        <ele>456.3</ele>
        <time>2010-03-19T11:36:23Z</time>
      </trkpt>
      <trkpt lat="38.689790" lon="-5.204390">
        <ele>455.3</ele>
        <time>2010-03-19T11:36:43Z</time>
      </trkpt>
      <trkpt lat="38.689570" lon="-5.204390">
        <ele>451.5</ele>
        <time>2010-03-19T11:37:02Z</time>
      </trkpt>
      <trkpt lat="38.689340" lon="-5.204460">
        <ele>447.1</ele>
        <time>2010-03-19T11:37:25Z</time>
      </trkpt>
      <trkpt lat="38.689110" lon="-5.204550">
        <ele>443.8</ele>
        <time>2010-03-19T11:37:47Z</time>
      </trkpt>
      <trkpt lat="38.688920" lon="-5.204660">
        <ele>445.7</ele>
        <time>2010-03-19T11:38:06Z</time>
      </trkpt>
      <trkpt lat="38.688680" lon="-5.204830">
        <ele>445.7</ele>
        <time>2010-03-19T11:38:30Z</time>
      </trkpt>
      <trkpt lat="38.688460" lon="-5.204950">
        <ele>444.3</ele>
        <time>2010-03-19T11:38:51Z</time>
      </trkpt>
      <trkpt lat="38.688430" lon="-5.204990">
        <ele>443.3</ele>
        <time>2010-03-19T11:39:06Z</time>
      </trkpt>
      <trkpt lat="38.688410" lon="-5.204970">
        <ele>438.0</ele>
        <time>2010-03-19T11:39:36Z</time>
      </trkpt>
      <trkpt lat="38.688420" lon="-5.204990">
        <ele>439.0</ele>
        <time>2010-03-19T11:39:50Z</time>
      </trkpt>
      <trkpt lat="38.688420" lon="-5.205000">
        <ele>442.8</ele>
        <time>2010-03-19T11:40:04Z</time>
      </trkpt>
      <trkpt lat="38.688290" lon="-5.205070">
        <ele>444.3</ele>
        <time>2010-03-19T11:40:19Z</time>
      </trkpt>
      <trkpt lat="38.688090" lon="-5.205160">
        <ele>444.3</ele>
        <time>2010-03-19T11:40:38Z</time>
      </trkpt>
      <trkpt lat="38.687850" lon="-5.205140">
        <ele>440.9</ele>
        <time>2010-03-19T11:41:00Z</time>
      </trkpt>
      <trkpt lat="38.687770" lon="-5.205100">
        <ele>441.4</ele>
        <time>2010-03-19T11:41:09Z</time>
      </trkpt>
      <trkpt lat="38.687660" lon="-5.205190">
        <ele>440.4</ele>
        <time>2010-03-19T11:41:24Z</time>
      </trkpt>
      <trkpt lat="38.687540" lon="-5.205300">
        <ele>439.9</ele>
        <time>2010-03-19T11:41:39Z</time>
      </trkpt>
      <trkpt lat="38.687380" lon="-5.205470">
        <ele>439.5</ele>
        <time>2010-03-19T11:41:58Z</time>
      </trkpt>
      <trkpt lat="38.687180" lon="-5.205680">
        <ele>439.0</ele>
        <time>2010-03-19T11:42:19Z</time>
      </trkpt>
      <trkpt lat="38.687020" lon="-5.205820">
        <ele>438.5</ele>
        <time>2010-03-19T11:42:37Z</time>
      </trkpt>
      <trkpt lat="38.686830" lon="-5.205960">
        <ele>437.5</ele>
        <time>2010-03-19T11:42:57Z</time>
      </trkpt>
      <trkpt lat="38.686640" lon="-5.206110">
        <ele>437.5</ele>
        <time>2010-03-19T11:43:16Z</time>
      </trkpt>
      <trkpt lat="38.686480" lon="-5.206200">
        <ele>436.1</ele>
        <time>2010-03-19T11:43:32Z</time>
      </trkpt>
      <trkpt lat="38.686270" lon="-5.206290">
        <ele>433.7</ele>
        <time>2010-03-19T11:43:55Z</time>
      </trkpt>
      <trkpt lat="38.686230" lon="-5.206320">
        <ele>432.7</ele>
        <time>2010-03-19T11:44:01Z</time>
      </trkpt>
      <trkpt lat="38.686110" lon="-5.206420">
        <ele>432.7</ele>
        <time>2010-03-19T11:44:14Z</time>
      </trkpt>
      <trkpt lat="38.686040" lon="-5.206450">
        <ele>432.2</ele>
        <time>2010-03-19T11:44:30Z</time>
      </trkpt>
      <trkpt lat="38.686020" lon="-5.206450">
        <ele>432.2</ele>
        <time>2010-03-19T11:44:33Z</time>
      </trkpt>
      <trkpt lat="38.685970" lon="-5.206470">
        <ele>432.2</ele>
        <time>2010-03-19T11:44:37Z</time>
      </trkpt>
      <trkpt lat="38.685800" lon="-5.206580">
        <ele>432.7</ele>
        <time>2010-03-19T11:44:55Z</time>
      </trkpt>
      <trkpt lat="38.685620" lon="-5.206760">
        <ele>431.8</ele>
        <time>2010-03-19T11:45:15Z</time>
      </trkpt>
      <trkpt lat="38.685500" lon="-5.206860">
        <ele>431.8</ele>
        <time>2010-03-19T11:45:35Z</time>
      </trkpt>
      <trkpt lat="38.685320" lon="-5.206950">
        <ele>432.2</ele>
        <time>2010-03-19T11:45:53Z</time>
      </trkpt>
      <trkpt lat="38.685230" lon="-5.206990">
        <ele>432.7</ele>
        <time>2010-03-19T11:46:06Z</time>
      </trkpt>
      <trkpt lat="38.685210" lon="-5.207030">
        <ele>433.2</ele>
        <time>2010-03-19T11:46:21Z</time>
      </trkpt>
      <trkpt lat="38.685220" lon="-5.207060">
        <ele>431.3</ele>
        <time>2010-03-19T11:46:53Z</time>
      </trkpt>
      <trkpt lat="38.685280" lon="-5.207030">
        <ele>432.2</ele>
        <time>2010-03-19T11:47:27Z</time>
      </trkpt>
      <trkpt lat="38.685260" lon="-5.207020">
        <ele>434.2</ele>
        <time>2010-03-19T11:48:04Z</time>
      </trkpt>
      <trkpt lat="38.685230" lon="-5.206980">
        <ele>432.2</ele>
        <time>2010-03-19T11:48:23Z</time>
      </trkpt>
      <trkpt lat="38.685190" lon="-5.206980">
        <ele>432.2</ele>
        <time>2010-03-19T11:48:29Z</time>
      </trkpt>
      <trkpt lat="38.685280" lon="-5.207030">
        <ele>434.2</ele>
        <time>2010-03-19T11:48:48Z</time>
      </trkpt>
      <trkpt lat="38.685190" lon="-5.207050">
        <ele>435.6</ele>
        <time>2010-03-19T11:49:07Z</time>
      </trkpt>
      <trkpt lat="38.684930" lon="-5.207140">
        <ele>433.7</ele>
        <time>2010-03-19T11:49:30Z</time>
      </trkpt>
      <trkpt lat="38.684840" lon="-5.207180">
        <ele>435.6</ele>
        <time>2010-03-19T11:49:39Z</time>
      </trkpt>
      <trkpt lat="38.684790" lon="-5.207220">
        <ele>435.6</ele>
        <time>2010-03-19T11:49:57Z</time>
      </trkpt>
      <trkpt lat="38.684820" lon="-5.207190">
        <ele>433.7</ele>
        <time>2010-03-19T11:50:13Z</time>
      </trkpt>
      <trkpt lat="38.684780" lon="-5.207310">
        <ele>433.7</ele>
        <time>2010-03-19T11:50:24Z</time>
      </trkpt>
      <trkpt lat="38.684790" lon="-5.207400">
        <ele>432.2</ele>
        <time>2010-03-19T11:50:43Z</time>
      </trkpt>
      <trkpt lat="38.684800" lon="-5.207650">
        <ele>433.2</ele>
        <time>2010-03-19T11:51:05Z</time>
      </trkpt>
      <trkpt lat="38.684820" lon="-5.208000">
        <ele>434.2</ele>
        <time>2010-03-19T11:51:32Z</time>
      </trkpt>
      <trkpt lat="38.684870" lon="-5.208270">
        <ele>431.8</ele>
        <time>2010-03-19T11:51:54Z</time>
      </trkpt>
      <trkpt lat="38.684980" lon="-5.208870">
        <ele>432.7</ele>
        <time>2010-03-19T11:52:43Z</time>
      </trkpt>
      <trkpt lat="38.685040" lon="-5.209120">
        <ele>433.2</ele>
        <time>2010-03-19T11:53:06Z</time>
      </trkpt>
      <trkpt lat="38.685120" lon="-5.209390">
        <ele>436.6</ele>
        <time>2010-03-19T11:53:29Z</time>
      </trkpt>
      <trkpt lat="38.685130" lon="-5.209670">
        <ele>435.1</ele>
        <time>2010-03-19T11:53:51Z</time>
      </trkpt>
      <trkpt lat="38.685140" lon="-5.209700">
        <ele>435.6</ele>
        <time>2010-03-19T11:53:52Z</time>
      </trkpt>
      <trkpt lat="38.685150" lon="-5.209800">
        <ele>438.5</ele>
        <time>2010-03-19T11:54:01Z</time>
      </trkpt>
      <trkpt lat="38.685180" lon="-5.210110">
        <ele>439.9</ele>
        <time>2010-03-19T11:54:26Z</time>
      </trkpt>
      <trkpt lat="38.685190" lon="-5.210270">
        <ele>439.5</ele>
        <time>2010-03-19T11:54:39Z</time>
      </trkpt>
      <trkpt lat="38.685220" lon="-5.210530">
        <ele>439.9</ele>
        <time>2010-03-19T11:55:02Z</time>
      </trkpt>
      <trkpt lat="38.685250" lon="-5.210730">
        <ele>442.4</ele>
        <time>2010-03-19T11:55:21Z</time>
      </trkpt>
      <trkpt lat="38.685280" lon="-5.211000">
        <ele>445.2</ele>
        <time>2010-03-19T11:55:44Z</time>
      </trkpt>
      <trkpt lat="38.685300" lon="-5.211200">
        <ele>448.6</ele>
        <time>2010-03-19T11:56:03Z</time>
      </trkpt>
      <trkpt lat="38.685330" lon="-5.211380">
        <ele>451.0</ele>
        <time>2010-03-19T11:56:23Z</time>
      </trkpt>
      <trkpt lat="38.685330" lon="-5.211690">
        <ele>452.4</ele>
        <time>2010-03-19T11:56:50Z</time>
      </trkpt>
      <trkpt lat="38.685260" lon="-5.212080">
        <ele>456.3</ele>
        <time>2010-03-19T11:57:23Z</time>
      </trkpt>
      <trkpt lat="38.685230" lon="-5.212140">
        <ele>455.8</ele>
        <time>2010-03-19T11:57:28Z</time>
      </trkpt>
      <trkpt lat="38.685070" lon="-5.212370">
        <ele>454.4</ele>
        <time>2010-03-19T11:57:52Z</time>
      </trkpt>
      <trkpt lat="38.684970" lon="-5.212530">
        <ele>454.9</ele>
        <time>2010-03-19T11:58:11Z</time>
      </trkpt>
      <trkpt lat="38.684970" lon="-5.212650">
        <ele>457.7</ele>
        <time>2010-03-19T11:58:38Z</time>
      </trkpt>
      <trkpt lat="38.684990" lon="-5.212800">
        <ele>460.1</ele>
        <time>2010-03-19T11:59:02Z</time>
      </trkpt>
      <trkpt lat="38.684940" lon="-5.213020">
        <ele>461.6</ele>
        <time>2010-03-19T11:59:20Z</time>
      </trkpt>
      <trkpt lat="38.684860" lon="-5.213390">
        <ele>463.0</ele>
        <time>2010-03-19T11:59:47Z</time>
      </trkpt>
      <trkpt lat="38.684790" lon="-5.213820">
        <ele>465.4</ele>
        <time>2010-03-19T12:00:22Z</time>
      </trkpt>
      <trkpt lat="38.684740" lon="-5.214070">
        <ele>464.5</ele>
        <time>2010-03-19T12:00:42Z</time>
      </trkpt>
      <trkpt lat="38.684690" lon="-5.214370">
        <ele>464.0</ele>
        <time>2010-03-19T12:01:05Z</time>
      </trkpt>
      <trkpt lat="38.684630" lon="-5.214690">
        <ele>464.0</ele>
        <time>2010-03-19T12:01:31Z</time>
      </trkpt>
      <trkpt lat="38.684590" lon="-5.215030">
        <ele>464.9</ele>
        <time>2010-03-19T12:01:55Z</time>
      </trkpt>
      <trkpt lat="38.684650" lon="-5.215260">
        <ele>464.5</ele>
        <time>2010-03-19T12:02:13Z</time>
      </trkpt>
      <trkpt lat="38.684760" lon="-5.215540">
        <ele>466.4</ele>
        <time>2010-03-19T12:02:36Z</time>
      </trkpt>
      <trkpt lat="38.684780" lon="-5.215700">
        <ele>467.3</ele>
        <time>2010-03-19T12:02:51Z</time>
      </trkpt>
      <trkpt lat="38.684820" lon="-5.215980">
        <ele>468.8</ele>
        <time>2010-03-19T12:03:08Z</time>
      </trkpt>
      <trkpt lat="38.684850" lon="-5.216310">
        <ele>466.9</ele>
        <time>2010-03-19T12:03:32Z</time>
      </trkpt>
      <trkpt lat="38.684910" lon="-5.216690">
        <ele>467.8</ele>
        <time>2010-03-19T12:03:58Z</time>
      </trkpt>
      <trkpt lat="38.684940" lon="-5.216840">
        <ele>464.5</ele>
        <time>2010-03-19T12:04:16Z</time>
      </trkpt>
      <trkpt lat="38.684940" lon="-5.216870">
        <ele>464.0</ele>
        <time>2010-03-19T12:04:18Z</time>
      </trkpt>
      <trkpt lat="38.684950" lon="-5.217090">
        <ele>462.0</ele>
        <time>2010-03-19T12:04:37Z</time>
      </trkpt>
      <trkpt lat="38.684970" lon="-5.217230">
        <ele>461.1</ele>
        <time>2010-03-19T12:04:52Z</time>
      </trkpt>
      <trkpt lat="38.684990" lon="-5.217420">
        <ele>460.1</ele>
        <time>2010-03-19T12:05:10Z</time>
      </trkpt>
      <trkpt lat="38.684980" lon="-5.217570">
        <ele>459.6</ele>
        <time>2010-03-19T12:05:20Z</time>
      </trkpt>
      <trkpt lat="38.684980" lon="-5.217590">
        <ele>459.6</ele>
        <time>2010-03-19T12:05:23Z</time>
      </trkpt>
      <trkpt lat="38.684990" lon="-5.217670">
        <ele>457.2</ele>
        <time>2010-03-19T12:05:38Z</time>
      </trkpt>
      <trkpt lat="38.684980" lon="-5.217730">
        <ele>457.2</ele>
        <time>2010-03-19T12:05:42Z</time>
      </trkpt>
      <trkpt lat="38.685030" lon="-5.217840">
        <ele>457.2</ele>
        <time>2010-03-19T12:05:57Z</time>
      </trkpt>
      <trkpt lat="38.685170" lon="-5.218010">
        <ele>462.5</ele>
        <time>2010-03-19T12:06:14Z</time>
      </trkpt>
      <trkpt lat="38.685210" lon="-5.218250">
        <ele>464.9</ele>
        <time>2010-03-19T12:06:32Z</time>
      </trkpt>
      <trkpt lat="38.685170" lon="-5.218430">
        <ele>465.4</ele>
        <time>2010-03-19T12:06:44Z</time>
      </trkpt>
      <trkpt lat="38.685020" lon="-5.218590">
        <ele>464.0</ele>
        <time>2010-03-19T12:07:03Z</time>
      </trkpt>
      <trkpt lat="38.684880" lon="-5.218700">
        <ele>464.9</ele>
        <time>2010-03-19T12:07:22Z</time>
      </trkpt>
      <trkpt lat="38.684720" lon="-5.218890">
        <ele>463.5</ele>
        <time>2010-03-19T12:07:44Z</time>
      </trkpt>
      <trkpt lat="38.684630" lon="-5.219080">
        <ele>466.4</ele>
        <time>2010-03-19T12:08:04Z</time>
      </trkpt>
      <trkpt lat="38.684600" lon="-5.219040">
        <ele>470.7</ele>
        <time>2010-03-19T12:08:50Z</time>
      </trkpt>
      <trkpt lat="38.684580" lon="-5.219530">
        <ele>462.0</ele>
        <time>2010-03-19T12:17:20Z</time>
      </trkpt>
      <trkpt lat="38.684570" lon="-5.219820">
        <ele>461.6</ele>
        <time>2010-03-19T12:17:39Z</time>
      </trkpt>
      <trkpt lat="38.684540" lon="-5.220060">
        <ele>460.1</ele>
        <time>2010-03-19T12:17:59Z</time>
      </trkpt>
      <trkpt lat="38.684550" lon="-5.220040">
        <ele>462.0</ele>
        <time>2010-03-19T12:18:30Z</time>
      </trkpt>
      <trkpt lat="38.684540" lon="-5.220030">
        <ele>458.2</ele>
        <time>2010-03-19T12:19:12Z</time>
      </trkpt>
      <trkpt lat="38.684560" lon="-5.220040">
        <ele>463.5</ele>
        <time>2010-03-19T12:19:57Z</time>
      </trkpt>
      <trkpt lat="38.684510" lon="-5.220240">
        <ele>464.5</ele>
        <time>2010-03-19T12:20:14Z</time>
      </trkpt>
      <trkpt lat="38.684470" lon="-5.220510">
        <ele>464.5</ele>
        <time>2010-03-19T12:20:34Z</time>
      </trkpt>
      <trkpt lat="38.684420" lon="-5.220630">
        <ele>464.5</ele>
        <time>2010-03-19T12:20:44Z</time>
      </trkpt>
      <trkpt lat="38.684080" lon="-5.221070">
        <ele>464.5</ele>
        <time>2010-03-19T12:21:28Z</time>
      </trkpt>
      <trkpt lat="38.684000" lon="-5.221280">
        <ele>465.9</ele>
        <time>2010-03-19T12:21:51Z</time>
      </trkpt>
      <trkpt lat="38.684000" lon="-5.221270">
        <ele>465.9</ele>
        <time>2010-03-19T12:22:21Z</time>
      </trkpt>
      <trkpt lat="38.684060" lon="-5.221240">
        <ele>467.8</ele>
        <time>2010-03-19T12:23:08Z</time>
      </trkpt>
      <trkpt lat="38.684030" lon="-5.221260">
        <ele>467.3</ele>
        <time>2010-03-19T12:23:24Z</time>
      </trkpt>
      <trkpt lat="38.684030" lon="-5.221310">
        <ele>471.7</ele>
        <time>2010-03-19T12:23:38Z</time>
      </trkpt>
      <trkpt lat="38.684040" lon="-5.221350">
        <ele>474.5</ele>
        <time>2010-03-19T12:23:42Z</time>
      </trkpt>
      <trkpt lat="38.684010" lon="-5.221590">
        <ele>473.1</ele>
        <time>2010-03-19T12:24:01Z</time>
      </trkpt>
      <trkpt lat="38.684000" lon="-5.221640">
        <ele>471.2</ele>
        <time>2010-03-19T12:24:04Z</time>
      </trkpt>
      <trkpt lat="38.683990" lon="-5.221660">
        <ele>469.7</ele>
        <time>2010-03-19T12:24:06Z</time>
      </trkpt>
      <trkpt lat="38.683870" lon="-5.221880">
        <ele>471.2</ele>
        <time>2010-03-19T12:24:25Z</time>
      </trkpt>
      <trkpt lat="38.683810" lon="-5.222060">
        <ele>471.2</ele>
        <time>2010-03-19T12:24:44Z</time>
      </trkpt>
      <trkpt lat="38.683800" lon="-5.222100">
        <ele>473.1</ele>
        <time>2010-03-19T12:25:03Z</time>
      </trkpt>
      <trkpt lat="38.683760" lon="-5.222250">
        <ele>471.7</ele>
        <time>2010-03-19T12:25:19Z</time>
      </trkpt>
      <trkpt lat="38.683690" lon="-5.222440">
        <ele>467.3</ele>
        <time>2010-03-19T12:25:38Z</time>
      </trkpt>
      <trkpt lat="38.683660" lon="-5.222530">
        <ele>465.4</ele>
        <time>2010-03-19T12:25:49Z</time>
      </trkpt>
      <trkpt lat="38.683590" lon="-5.222840">
        <ele>465.9</ele>
        <time>2010-03-19T12:26:08Z</time>
      </trkpt>
      <trkpt lat="38.683540" lon="-5.223040">
        <ele>466.9</ele>
        <time>2010-03-19T12:26:24Z</time>
      </trkpt>
      <trkpt lat="38.683520" lon="-5.223150">
        <ele>465.4</ele>
        <time>2010-03-19T12:26:32Z</time>
      </trkpt>
      <trkpt lat="38.683420" lon="-5.223500">
        <ele>462.0</ele>
        <time>2010-03-19T12:26:58Z</time>
      </trkpt>
      <trkpt lat="38.683360" lon="-5.223790">
        <ele>464.0</ele>
        <time>2010-03-19T12:27:18Z</time>
      </trkpt>
      <trkpt lat="38.683100" lon="-5.224610">
        <ele>494.7</ele>
        <time>2010-03-19T12:28:21Z</time>
      </trkpt>
      <trkpt lat="38.683050" lon="-5.224820">
        <ele>490.9</ele>
        <time>2010-03-19T12:28:40Z</time>
      </trkpt>
      <trkpt lat="38.683080" lon="-5.224820">
        <ele>483.2</ele>
        <time>2010-03-19T12:29:05Z</time>
      </trkpt>
      <trkpt lat="38.683110" lon="-5.224800">
        <ele>479.8</ele>
        <time>2010-03-19T12:29:36Z</time>
      </trkpt>
      <trkpt lat="38.683150" lon="-5.224780">
        <ele>482.7</ele>
        <time>2010-03-19T12:30:58Z</time>
      </trkpt>
      <trkpt lat="38.683120" lon="-5.224930">
        <ele>478.4</ele>
        <time>2010-03-19T12:32:16Z</time>
      </trkpt>
      <trkpt lat="38.683010" lon="-5.225260">
        <ele>478.9</ele>
        <time>2010-03-19T12:32:39Z</time>
      </trkpt>
      <trkpt lat="38.682950" lon="-5.225540">
        <ele>482.2</ele>
        <time>2010-03-19T12:33:01Z</time>
      </trkpt>
      <trkpt lat="38.682920" lon="-5.225830">
        <ele>482.2</ele>
        <time>2010-03-19T12:33:21Z</time>
      </trkpt>
      <trkpt lat="38.682910" lon="-5.225980">
        <ele>480.8</ele>
        <time>2010-03-19T12:33:32Z</time>
      </trkpt>
      <trkpt lat="38.682940" lon="-5.226360">
        <ele>473.6</ele>
        <time>2010-03-19T12:33:55Z</time>
      </trkpt>
      <trkpt lat="38.683030" lon="-5.226850">
        <ele>469.7</ele>
        <time>2010-03-19T12:34:31Z</time>
      </trkpt>
      <trkpt lat="38.683130" lon="-5.227100">
        <ele>475.0</ele>
        <time>2010-03-19T12:34:52Z</time>
      </trkpt>
      <trkpt lat="38.683150" lon="-5.227350">
        <ele>475.5</ele>
        <time>2010-03-19T12:35:09Z</time>
      </trkpt>
      <trkpt lat="38.683040" lon="-5.227630">
        <ele>473.6</ele>
        <time>2010-03-19T12:35:33Z</time>
      </trkpt>
      <trkpt lat="38.682910" lon="-5.227930">
        <ele>473.1</ele>
        <time>2010-03-19T12:35:55Z</time>
      </trkpt>
      <trkpt lat="38.682820" lon="-5.228170">
        <ele>472.6</ele>
        <time>2010-03-19T12:36:18Z</time>
      </trkpt>
      <trkpt lat="38.682720" lon="-5.228340">
        <ele>469.3</ele>
        <time>2010-03-19T12:36:29Z</time>
      </trkpt>
      <trkpt lat="38.682640" lon="-5.228510">
        <ele>471.2</ele>
        <time>2010-03-19T12:36:49Z</time>
      </trkpt>
      <trkpt lat="38.682580" lon="-5.228620">
        <ele>471.7</ele>
        <time>2010-03-19T12:37:39Z</time>
      </trkpt>
      <trkpt lat="38.682610" lon="-5.228570">
        <ele>473.6</ele>
        <time>2010-03-19T12:37:53Z</time>
      </trkpt>
      <trkpt lat="38.682610" lon="-5.228510">
        <ele>473.1</ele>
        <time>2010-03-19T12:38:11Z</time>
      </trkpt>
      <trkpt lat="38.682620" lon="-5.228480">
        <ele>472.6</ele>
        <time>2010-03-19T12:38:29Z</time>
      </trkpt>
      <trkpt lat="38.682620" lon="-5.228490">
        <ele>473.6</ele>
        <time>2010-03-19T12:38:52Z</time>
      </trkpt>
      <trkpt lat="38.682570" lon="-5.228560">
        <ele>473.1</ele>
        <time>2010-03-19T12:38:57Z</time>
      </trkpt>
      <trkpt lat="38.682570" lon="-5.228580">
        <ele>472.1</ele>
        <time>2010-03-19T12:39:12Z</time>
      </trkpt>
      <trkpt lat="38.682870" lon="-5.228600">
        <ele>469.7</ele>
        <time>2010-03-19T12:39:35Z</time>
      </trkpt>
      <trkpt lat="38.683080" lon="-5.228700">
        <ele>471.2</ele>
        <time>2010-03-19T12:39:51Z</time>
      </trkpt>
      <trkpt lat="38.683120" lon="-5.228690">
        <ele>474.5</ele>
        <time>2010-03-19T12:40:13Z</time>
      </trkpt>
      <trkpt lat="38.683170" lon="-5.228740">
        <ele>473.1</ele>
        <time>2010-03-19T12:40:37Z</time>
      </trkpt>
      <trkpt lat="38.683500" lon="-5.229070">
        <ele>476.5</ele>
        <time>2010-03-19T12:41:07Z</time>
      </trkpt>
      <trkpt lat="38.683660" lon="-5.229320">
        <ele>478.9</ele>
        <time>2010-03-19T12:41:33Z</time>
      </trkpt>
      <trkpt lat="38.683990" lon="-5.229550">
        <ele>468.8</ele>
        <time>2010-03-19T12:42:28Z</time>
      </trkpt>
      <trkpt lat="38.684230" lon="-5.229610">
        <ele>473.1</ele>
        <time>2010-03-19T12:42:48Z</time>
      </trkpt>
      <trkpt lat="38.684530" lon="-5.229740">
        <ele>477.9</ele>
        <time>2010-03-19T12:43:14Z</time>
      </trkpt>
      <trkpt lat="38.684650" lon="-5.229900">
        <ele>479.8</ele>
        <time>2010-03-19T12:43:34Z</time>
      </trkpt>
      <trkpt lat="38.684720" lon="-5.230040">
        <ele>483.2</ele>
        <time>2010-03-19T12:44:00Z</time>
      </trkpt>
      <trkpt lat="38.684730" lon="-5.230070">
        <ele>483.7</ele>
        <time>2010-03-19T12:44:02Z</time>
      </trkpt>
      <trkpt lat="38.684900" lon="-5.230330">
        <ele>484.6</ele>
        <time>2010-03-19T12:44:24Z</time>
      </trkpt>
      <trkpt lat="38.685080" lon="-5.230450">
        <ele>487.5</ele>
        <time>2010-03-19T12:44:46Z</time>
      </trkpt>
      <trkpt lat="38.685290" lon="-5.230520">
        <ele>488.5</ele>
        <time>2010-03-19T12:45:07Z</time>
      </trkpt>
      <trkpt lat="38.685470" lon="-5.230580">
        <ele>487.5</ele>
        <time>2010-03-19T12:45:26Z</time>
      </trkpt>
      <trkpt lat="38.685660" lon="-5.230630">
        <ele>487.0</ele>
        <time>2010-03-19T12:45:46Z</time>
      </trkpt>
      <trkpt lat="38.685840" lon="-5.230630">
        <ele>488.5</ele>
        <time>2010-03-19T12:46:07Z</time>
      </trkpt>
      <trkpt lat="38.686090" lon="-5.230630">
        <ele>489.4</ele>
        <time>2010-03-19T12:46:28Z</time>
      </trkpt>
      <trkpt lat="38.686340" lon="-5.230620">
        <ele>490.9</ele>
        <time>2010-03-19T12:46:54Z</time>
      </trkpt>
      <trkpt lat="38.686520" lon="-5.230630">
        <ele>492.8</ele>
        <time>2010-03-19T12:47:13Z</time>
      </trkpt>
      <trkpt lat="38.686670" lon="-5.230630">
        <ele>493.8</ele>
        <time>2010-03-19T12:47:29Z</time>
      </trkpt>
      <trkpt lat="38.686860" lon="-5.230670">
        <ele>493.8</ele>
        <time>2010-03-19T12:47:48Z</time>
      </trkpt>
      <trkpt lat="38.687010" lon="-5.230720">
        <ele>496.2</ele>
        <time>2010-03-19T12:48:05Z</time>
      </trkpt>
      <trkpt lat="38.687190" lon="-5.230810">
        <ele>497.1</ele>
        <time>2010-03-19T12:48:28Z</time>
      </trkpt>
      <trkpt lat="38.687300" lon="-5.230840">
        <ele>499.5</ele>
        <time>2010-03-19T12:48:47Z</time>
      </trkpt>
      <trkpt lat="38.687380" lon="-5.230710">
        <ele>499.5</ele>
        <time>2010-03-19T12:49:10Z</time>
      </trkpt>
      <trkpt lat="38.687380" lon="-5.230710">
        <ele>499.5</ele>
        <time>2010-03-19T12:49:12Z</time>
      </trkpt>
      <trkpt lat="38.687370" lon="-5.230760">
        <ele>500.0</ele>
        <time>2010-03-19T12:49:16Z</time>
      </trkpt>
      <trkpt lat="38.687350" lon="-5.230830">
        <ele>501.0</ele>
        <time>2010-03-19T12:49:22Z</time>
      </trkpt>
      <trkpt lat="38.687430" lon="-5.230860">
        <ele>503.4</ele>
        <time>2010-03-19T12:49:37Z</time>
      </trkpt>
      <trkpt lat="38.687570" lon="-5.230930">
        <ele>503.4</ele>
        <time>2010-03-19T12:49:56Z</time>
      </trkpt>
      <trkpt lat="38.687740" lon="-5.230940">
        <ele>503.9</ele>
        <time>2010-03-19T12:50:14Z</time>
      </trkpt>
      <trkpt lat="38.687980" lon="-5.230900">
        <ele>506.3</ele>
        <time>2010-03-19T12:50:38Z</time>
      </trkpt>
      <trkpt lat="38.688190" lon="-5.230960">
        <ele>507.2</ele>
        <time>2010-03-19T12:51:00Z</time>
      </trkpt>
      <trkpt lat="38.688280" lon="-5.231010">
        <ele>508.7</ele>
        <time>2010-03-19T12:51:21Z</time>
      </trkpt>
      <trkpt lat="38.688470" lon="-5.231120">
        <ele>509.6</ele>
        <time>2010-03-19T12:51:43Z</time>
      </trkpt>
      <trkpt lat="38.688640" lon="-5.231230">
        <ele>513.5</ele>
        <time>2010-03-19T12:52:03Z</time>
      </trkpt>
      <trkpt lat="38.688870" lon="-5.231380">
        <ele>513.5</ele>
        <time>2010-03-19T12:52:25Z</time>
      </trkpt>
      <trkpt lat="38.689030" lon="-5.231520">
        <ele>514.0</ele>
        <time>2010-03-19T12:52:49Z</time>
      </trkpt>
      <trkpt lat="38.689120" lon="-5.231640">
        <ele>515.9</ele>
        <time>2010-03-19T12:53:04Z</time>
      </trkpt>
      <trkpt lat="38.689200" lon="-5.231720">
        <ele>517.8</ele>
        <time>2010-03-19T12:53:09Z</time>
      </trkpt>
      <trkpt lat="38.689310" lon="-5.231860">
        <ele>521.7</ele>
        <time>2010-03-19T12:53:29Z</time>
      </trkpt>
      <trkpt lat="38.689490" lon="-5.232130">
        <ele>525.5</ele>
        <time>2010-03-19T12:54:07Z</time>
      </trkpt>
      <trkpt lat="38.689700" lon="-5.232480">
        <ele>529.8</ele>
        <time>2010-03-19T12:54:45Z</time>
      </trkpt>
      <trkpt lat="38.690070" lon="-5.232870">
        <ele>531.8</ele>
        <time>2010-03-19T12:55:39Z</time>
      </trkpt>
      <trkpt lat="38.690190" lon="-5.232930">
        <ele>531.8</ele>
        <time>2010-03-19T12:55:55Z</time>
      </trkpt>
      <trkpt lat="38.690310" lon="-5.232950">
        <ele>529.8</ele>
        <time>2010-03-19T12:56:17Z</time>
      </trkpt>
      <trkpt lat="38.690540" lon="-5.233070">
        <ele>531.3</ele>
        <time>2010-03-19T12:56:38Z</time>
      </trkpt>
      <trkpt lat="38.690730" lon="-5.233240">
        <ele>530.8</ele>
        <time>2010-03-19T12:57:01Z</time>
      </trkpt>
      <trkpt lat="38.690880" lon="-5.233480">
        <ele>532.7</ele>
        <time>2010-03-19T12:57:27Z</time>
      </trkpt>
      <trkpt lat="38.691000" lon="-5.233730">
        <ele>534.6</ele>
        <time>2010-03-19T12:57:54Z</time>
      </trkpt>
      <trkpt lat="38.691160" lon="-5.233950">
        <ele>537.5</ele>
        <time>2010-03-19T12:58:25Z</time>
      </trkpt>
      <trkpt lat="38.691240" lon="-5.234100">
        <ele>542.3</ele>
        <time>2010-03-19T12:58:44Z</time>
      </trkpt>
      <trkpt lat="38.691270" lon="-5.234240">
        <ele>543.8</ele>
        <time>2010-03-19T12:59:04Z</time>
      </trkpt>
      <trkpt lat="38.691420" lon="-5.234620">
        <ele>550.0</ele>
        <time>2010-03-19T12:59:43Z</time>
      </trkpt>
      <trkpt lat="38.691450" lon="-5.234660">
        <ele>549.0</ele>
        <time>2010-03-19T12:59:49Z</time>
      </trkpt>
      <trkpt lat="38.691510" lon="-5.234780">
        <ele>548.1</ele>
        <time>2010-03-19T13:00:09Z</time>
      </trkpt>
      <trkpt lat="38.691580" lon="-5.234950">
        <ele>551.4</ele>
        <time>2010-03-19T13:00:29Z</time>
      </trkpt>
      <trkpt lat="38.691650" lon="-5.235150">
        <ele>553.9</ele>
        <time>2010-03-19T13:00:52Z</time>
      </trkpt>
      <trkpt lat="38.691720" lon="-5.235320">
        <ele>557.2</ele>
        <time>2010-03-19T13:01:14Z</time>
      </trkpt>
      <trkpt lat="38.691790" lon="-5.235380">
        <ele>558.2</ele>
        <time>2010-03-19T13:01:26Z</time>
      </trkpt>
      <trkpt lat="38.691920" lon="-5.235370">
        <ele>559.2</ele>
        <time>2010-03-19T13:01:46Z</time>
      </trkpt>
      <trkpt lat="38.691980" lon="-5.235230">
        <ele>562.5</ele>
        <time>2010-03-19T13:02:05Z</time>
      </trkpt>
      <trkpt lat="38.692030" lon="-5.235060">
        <ele>565.9</ele>
        <time>2010-03-19T13:02:21Z</time>
      </trkpt>
      <trkpt lat="38.692150" lon="-5.234910">
        <ele>570.7</ele>
        <time>2010-03-19T13:02:43Z</time>
      </trkpt>
      <trkpt lat="38.692230" lon="-5.234820">
        <ele>571.7</ele>
        <time>2010-03-19T13:02:59Z</time>
      </trkpt>
      <trkpt lat="38.692360" lon="-5.234750">
        <ele>573.6</ele>
        <time>2010-03-19T13:03:19Z</time>
      </trkpt>
      <trkpt lat="38.692450" lon="-5.234770">
        <ele>574.5</ele>
        <time>2010-03-19T13:03:40Z</time>
      </trkpt>
      <trkpt lat="38.692490" lon="-5.234780">
        <ele>574.5</ele>
        <time>2010-03-19T13:03:44Z</time>
      </trkpt>
      <trkpt lat="38.692670" lon="-5.234930">
        <ele>576.9</ele>
        <time>2010-03-19T13:04:08Z</time>
      </trkpt>
      <trkpt lat="38.692820" lon="-5.234990">
        <ele>578.8</ele>
        <time>2010-03-19T13:04:31Z</time>
      </trkpt>
      <trkpt lat="38.692860" lon="-5.234950">
        <ele>579.8</ele>
        <time>2010-03-19T13:04:47Z</time>
      </trkpt>
      <trkpt lat="38.692820" lon="-5.234960">
        <ele>584.6</ele>
        <time>2010-03-19T13:05:20Z</time>
      </trkpt>
      <trkpt lat="38.692870" lon="-5.235030">
        <ele>580.8</ele>
        <time>2010-03-19T13:06:07Z</time>
      </trkpt>
      <trkpt lat="38.692850" lon="-5.235010">
        <ele>578.8</ele>
        <time>2010-03-19T13:06:16Z</time>
      </trkpt>
      <trkpt lat="38.692800" lon="-5.234950">
        <ele>580.3</ele>
        <time>2010-03-19T13:06:23Z</time>
      </trkpt>
      <trkpt lat="38.692810" lon="-5.234960">
        <ele>580.8</ele>
        <time>2010-03-19T13:06:38Z</time>
      </trkpt>
      <trkpt lat="38.692840" lon="-5.234970">
        <ele>579.8</ele>
        <time>2010-03-19T13:06:39Z</time>
      </trkpt>
      <trkpt lat="38.692880" lon="-5.234950">
        <ele>579.3</ele>
        <time>2010-03-19T13:06:57Z</time>
      </trkpt>
      <trkpt lat="38.692910" lon="-5.235190">
        <ele>579.8</ele>
        <time>2010-03-19T13:07:17Z</time>
      </trkpt>
      <trkpt lat="38.692930" lon="-5.235280">
        <ele>582.7</ele>
        <time>2010-03-19T13:07:30Z</time>
      </trkpt>
      <trkpt lat="38.693010" lon="-5.235470">
        <ele>585.6</ele>
        <time>2010-03-19T13:07:49Z</time>
      </trkpt>
      <trkpt lat="38.693030" lon="-5.235560">
        <ele>581.3</ele>
        <time>2010-03-19T13:07:59Z</time>
      </trkpt>
      <trkpt lat="38.693100" lon="-5.235780">
        <ele>582.2</ele>
        <time>2010-03-19T13:08:23Z</time>
      </trkpt>
      <trkpt lat="38.693160" lon="-5.235940">
        <ele>584.6</ele>
        <time>2010-03-19T13:08:43Z</time>
      </trkpt>
      <trkpt lat="38.693230" lon="-5.236110">
        <ele>590.4</ele>
        <time>2010-03-19T13:09:05Z</time>
      </trkpt>
      <trkpt lat="38.693370" lon="-5.236480">
        <ele>594.7</ele>
        <time>2010-03-19T13:09:52Z</time>
      </trkpt>
      <trkpt lat="38.693460" lon="-5.236680">
        <ele>599.0</ele>
        <time>2010-03-19T13:10:11Z</time>
      </trkpt>
      <trkpt lat="38.693610" lon="-5.236840">
        <ele>598.6</ele>
        <time>2010-03-19T13:10:31Z</time>
      </trkpt>
      <trkpt lat="38.693670" lon="-5.236940">
        <ele>602.9</ele>
        <time>2010-03-19T13:10:57Z</time>
      </trkpt>
      <trkpt lat="38.693810" lon="-5.237030">
        <ele>601.9</ele>
        <time>2010-03-19T13:11:17Z</time>
      </trkpt>
      <trkpt lat="38.693990" lon="-5.237190">
        <ele>603.8</ele>
        <time>2010-03-19T13:11:40Z</time>
      </trkpt>
      <trkpt lat="38.694240" lon="-5.237530">
        <ele>609.6</ele>
        <time>2010-03-19T13:12:30Z</time>
      </trkpt>
      <trkpt lat="38.694570" lon="-5.237680">
        <ele>610.1</ele>
        <time>2010-03-19T13:13:09Z</time>
      </trkpt>
      <trkpt lat="38.694620" lon="-5.237900">
        <ele>609.6</ele>
        <time>2010-03-19T13:13:28Z</time>
      </trkpt>
      <trkpt lat="38.694660" lon="-5.238140">
        <ele>611.6</ele>
        <time>2010-03-19T13:13:51Z</time>
      </trkpt>
      <trkpt lat="38.694660" lon="-5.238320">
        <ele>613.5</ele>
        <time>2010-03-19T13:14:10Z</time>
      </trkpt>
      <trkpt lat="38.694700" lon="-5.238530">
        <ele>610.1</ele>
        <time>2010-03-19T13:14:32Z</time>
      </trkpt>
      <trkpt lat="38.694730" lon="-5.238560">
        <ele>611.1</ele>
        <time>2010-03-19T13:14:52Z</time>
      </trkpt>
      <trkpt lat="38.694720" lon="-5.238730">
        <ele>616.3</ele>
        <time>2010-03-19T13:15:08Z</time>
      </trkpt>
      <trkpt lat="38.694750" lon="-5.238890">
        <ele>622.1</ele>
        <time>2010-03-19T13:15:26Z</time>
      </trkpt>
      <trkpt lat="38.694760" lon="-5.239030">
        <ele>620.7</ele>
        <time>2010-03-19T13:15:46Z</time>
      </trkpt>
      <trkpt lat="38.694750" lon="-5.239230">
        <ele>617.8</ele>
        <time>2010-03-19T13:16:03Z</time>
      </trkpt>
      <trkpt lat="38.694730" lon="-5.239440">
        <ele>622.1</ele>
        <time>2010-03-19T13:16:24Z</time>
      </trkpt>
      <trkpt lat="38.694720" lon="-5.239630">
        <ele>622.1</ele>
        <time>2010-03-19T13:16:44Z</time>
      </trkpt>
      <trkpt lat="38.694720" lon="-5.239690">
        <ele>623.6</ele>
        <time>2010-03-19T13:16:48Z</time>
      </trkpt>
      <trkpt lat="38.694710" lon="-5.239870">
        <ele>630.3</ele>
        <time>2010-03-19T13:17:06Z</time>
      </trkpt>
      <trkpt lat="38.694710" lon="-5.239890">
        <ele>631.2</ele>
        <time>2010-03-19T13:17:07Z</time>
      </trkpt>
      <trkpt lat="38.694680" lon="-5.240020">
        <ele>632.2</ele>
        <time>2010-03-19T13:17:26Z</time>
      </trkpt>
      <trkpt lat="38.694660" lon="-5.240030">
        <ele>637.0</ele>
        <time>2010-03-19T13:18:17Z</time>
      </trkpt>
      <trkpt lat="38.694720" lon="-5.239980">
        <ele>637.0</ele>
        <time>2010-03-19T13:19:00Z</time>
      </trkpt>
      <trkpt lat="38.694740" lon="-5.239990">
        <ele>636.5</ele>
        <time>2010-03-19T13:19:23Z</time>
      </trkpt>
      <trkpt lat="38.694750" lon="-5.239910">
        <ele>637.0</ele>
        <time>2010-03-19T13:19:41Z</time>
      </trkpt>
      <trkpt lat="38.694760" lon="-5.239900">
        <ele>638.0</ele>
        <time>2010-03-19T13:19:49Z</time>
      </trkpt>
      <trkpt lat="38.694730" lon="-5.240030">
        <ele>637.5</ele>
        <time>2010-03-19T13:19:57Z</time>
      </trkpt>
      <trkpt lat="38.694770" lon="-5.240160">
        <ele>639.4</ele>
        <time>2010-03-19T13:20:15Z</time>
      </trkpt>
      <trkpt lat="38.694770" lon="-5.240350">
        <ele>638.9</ele>
        <time>2010-03-19T13:20:32Z</time>
      </trkpt>
      <trkpt lat="38.694820" lon="-5.240480">
        <ele>639.9</ele>
        <time>2010-03-19T13:20:52Z</time>
      </trkpt>
      <trkpt lat="38.694870" lon="-5.240620">
        <ele>642.3</ele>
        <time>2010-03-19T13:21:09Z</time>
      </trkpt>
      <trkpt lat="38.694900" lon="-5.240840">
        <ele>643.7</ele>
        <time>2010-03-19T13:21:26Z</time>
      </trkpt>
      <trkpt lat="38.694970" lon="-5.241040">
        <ele>641.3</ele>
        <time>2010-03-19T13:21:42Z</time>
      </trkpt>
      <trkpt lat="38.695010" lon="-5.241250">
        <ele>642.3</ele>
        <time>2010-03-19T13:22:01Z</time>
      </trkpt>
      <trkpt lat="38.695050" lon="-5.241410">
        <ele>641.8</ele>
        <time>2010-03-19T13:22:20Z</time>
      </trkpt>
      <trkpt lat="38.695040" lon="-5.241430">
        <ele>642.3</ele>
        <time>2010-03-19T13:22:30Z</time>
      </trkpt>
      <trkpt lat="38.695040" lon="-5.241440">
        <ele>641.8</ele>
        <time>2010-03-19T13:23:05Z</time>
      </trkpt>
      <trkpt lat="38.695050" lon="-5.241450">
        <ele>642.3</ele>
        <time>2010-03-19T13:23:33Z</time>
      </trkpt>
      <trkpt lat="38.695020" lon="-5.241530">
        <ele>641.3</ele>
        <time>2010-03-19T13:23:52Z</time>
      </trkpt>
      <trkpt lat="38.695020" lon="-5.241600">
        <ele>641.8</ele>
        <time>2010-03-19T13:23:59Z</time>
      </trkpt>
      <trkpt lat="38.694990" lon="-5.241860">
        <ele>641.3</ele>
        <time>2010-03-19T13:24:19Z</time>
      </trkpt>
      <trkpt lat="38.694970" lon="-5.242080">
        <ele>640.4</ele>
        <time>2010-03-19T13:24:38Z</time>
      </trkpt>
      <trkpt lat="38.695020" lon="-5.242360">
        <ele>637.5</ele>
        <time>2010-03-19T13:24:59Z</time>
      </trkpt>
      <trkpt lat="38.695020" lon="-5.242370">
        <ele>637.5</ele>
        <time>2010-03-19T13:25:01Z</time>
      </trkpt>
      <trkpt lat="38.695020" lon="-5.242420">
        <ele>638.0</ele>
        <time>2010-03-19T13:25:06Z</time>
      </trkpt>
      <trkpt lat="38.695060" lon="-5.242710">
        <ele>638.0</ele>
        <time>2010-03-19T13:25:28Z</time>
      </trkpt>
      <trkpt lat="38.695120" lon="-5.242980">
        <ele>638.5</ele>
        <time>2010-03-19T13:25:48Z</time>
      </trkpt>
      <trkpt lat="38.695200" lon="-5.243200">
        <ele>639.9</ele>
        <time>2010-03-19T13:26:07Z</time>
      </trkpt>
      <trkpt lat="38.695260" lon="-5.243310">
        <ele>640.4</ele>
        <time>2010-03-19T13:26:23Z</time>
      </trkpt>
      <trkpt lat="38.695270" lon="-5.243320">
        <ele>639.4</ele>
        <time>2010-03-19T13:26:49Z</time>
      </trkpt>
      <trkpt lat="38.695350" lon="-5.243510">
        <ele>640.8</ele>
        <time>2010-03-19T13:27:06Z</time>
      </trkpt>
      <trkpt lat="38.695390" lon="-5.243640">
        <ele>639.4</ele>
        <time>2010-03-19T13:27:17Z</time>
      </trkpt>
      <trkpt lat="38.695470" lon="-5.243790">
        <ele>638.9</ele>
        <time>2010-03-19T13:27:32Z</time>
      </trkpt>
      <trkpt lat="38.695480" lon="-5.243810">
        <ele>639.4</ele>
        <time>2010-03-19T13:27:33Z</time>
      </trkpt>
      <trkpt lat="38.695570" lon="-5.244020">
        <ele>637.0</ele>
        <time>2010-03-19T13:27:52Z</time>
      </trkpt>
      <trkpt lat="38.695650" lon="-5.244240">
        <ele>638.9</ele>
        <time>2010-03-19T13:28:12Z</time>
      </trkpt>
      <trkpt lat="38.695670" lon="-5.244270">
        <ele>639.4</ele>
        <time>2010-03-19T13:28:22Z</time>
      </trkpt>
      <trkpt lat="38.695810" lon="-5.244430">
        <ele>640.4</ele>
        <time>2010-03-19T13:28:39Z</time>
      </trkpt>
      <trkpt lat="38.695960" lon="-5.244580">
        <ele>637.5</ele>
        <time>2010-03-19T13:29:01Z</time>
      </trkpt>
      <trkpt lat="38.696040" lon="-5.244730">
        <ele>637.5</ele>
        <time>2010-03-19T13:29:15Z</time>
      </trkpt>
      <trkpt lat="38.696150" lon="-5.244850">
        <ele>638.9</ele>
        <time>2010-03-19T13:29:29Z</time>
      </trkpt>
      <trkpt lat="38.696270" lon="-5.244960">
        <ele>645.2</ele>
        <time>2010-03-19T13:29:48Z</time>
      </trkpt>
      <trkpt lat="38.696380" lon="-5.245070">
        <ele>646.1</ele>
        <time>2010-03-19T13:30:05Z</time>
      </trkpt>
      <trkpt lat="38.696410" lon="-5.245100">
        <ele>646.6</ele>
        <time>2010-03-19T13:30:10Z</time>
      </trkpt>
      <trkpt lat="38.696500" lon="-5.245180">
        <ele>648.1</ele>
        <time>2010-03-19T13:30:27Z</time>
      </trkpt>
      <trkpt lat="38.696590" lon="-5.245310">
        <ele>651.0</ele>
        <time>2010-03-19T13:30:42Z</time>
      </trkpt>
      <trkpt lat="38.696670" lon="-5.245460">
        <ele>650.5</ele>
        <time>2010-03-19T13:30:57Z</time>
      </trkpt>
      <trkpt lat="38.696670" lon="-5.245470">
        <ele>650.5</ele>
        <time>2010-03-19T13:30:59Z</time>
      </trkpt>
      <trkpt lat="38.696690" lon="-5.245530">
        <ele>652.4</ele>
        <time>2010-03-19T13:31:03Z</time>
      </trkpt>
      <trkpt lat="38.696730" lon="-5.245600">
        <ele>652.9</ele>
        <time>2010-03-19T13:31:09Z</time>
      </trkpt>
      <trkpt lat="38.696760" lon="-5.245660">
        <ele>654.3</ele>
        <time>2010-03-19T13:31:15Z</time>
      </trkpt>
      <trkpt lat="38.696930" lon="-5.245810">
        <ele>653.8</ele>
        <time>2010-03-19T13:31:36Z</time>
      </trkpt>
      <trkpt lat="38.697130" lon="-5.246050">
        <ele>655.7</ele>
        <time>2010-03-19T13:32:02Z</time>
      </trkpt>
      <trkpt lat="38.697200" lon="-5.246090">
        <ele>654.8</ele>
        <time>2010-03-19T13:32:14Z</time>
      </trkpt>
      <trkpt lat="38.697330" lon="-5.246160">
        <ele>656.7</ele>
        <time>2010-03-19T13:32:32Z</time>
      </trkpt>
      <trkpt lat="38.697360" lon="-5.246170">
        <ele>658.2</ele>
        <time>2010-03-19T13:32:53Z</time>
      </trkpt>
      <trkpt lat="38.697370" lon="-5.246180">
        <ele>660.1</ele>
        <time>2010-03-19T13:33:12Z</time>
      </trkpt>
      <trkpt lat="38.697360" lon="-5.246170">
        <ele>658.2</ele>
        <time>2010-03-19T13:33:54Z</time>
      </trkpt>
      <trkpt lat="38.697510" lon="-5.246190">
        <ele>661.1</ele>
        <time>2010-03-19T13:34:16Z</time>
      </trkpt>
      <trkpt lat="38.697570" lon="-5.246160">
        <ele>663.9</ele>
        <time>2010-03-19T13:34:30Z</time>
      </trkpt>
      <trkpt lat="38.697570" lon="-5.246160">
        <ele>663.9</ele>
        <time>2010-03-19T13:34:51Z</time>
      </trkpt>
      <trkpt lat="38.697600" lon="-5.246180">
        <ele>666.3</ele>
        <time>2010-03-19T13:35:07Z</time>
      </trkpt>
      <trkpt lat="38.697590" lon="-5.246210">
        <ele>667.8</ele>
        <time>2010-03-19T13:35:27Z</time>
      </trkpt>
      <trkpt lat="38.697630" lon="-5.246190">
        <ele>668.7</ele>
        <time>2010-03-19T13:35:42Z</time>
      </trkpt>
      <trkpt lat="38.697600" lon="-5.246180">
        <ele>670.2</ele>
        <time>2010-03-19T13:35:50Z</time>
      </trkpt>
      <trkpt lat="38.697930" lon="-5.245940">
        <ele>664.9</ele>
        <time>2010-03-19T13:36:25Z</time>
      </trkpt>
      <trkpt lat="38.698130" lon="-5.245780">
        <ele>662.0</ele>
        <time>2010-03-19T13:36:47Z</time>
      </trkpt>
      <trkpt lat="38.698330" lon="-5.245610">
        <ele>659.6</ele>
        <time>2010-03-19T13:37:07Z</time>
      </trkpt>
      <trkpt lat="38.698540" lon="-5.245440">
        <ele>659.1</ele>
        <time>2010-03-19T13:37:34Z</time>
      </trkpt>
      <trkpt lat="38.698700" lon="-5.245280">
        <ele>657.2</ele>
        <time>2010-03-19T13:37:56Z</time>
      </trkpt>
      <trkpt lat="38.698870" lon="-5.245130">
        <ele>654.8</ele>
        <time>2010-03-19T13:38:16Z</time>
      </trkpt>
      <trkpt lat="38.699010" lon="-5.245010">
        <ele>651.4</ele>
        <time>2010-03-19T13:38:32Z</time>
      </trkpt>
      <trkpt lat="38.699190" lon="-5.244850">
        <ele>650.0</ele>
        <time>2010-03-19T13:38:54Z</time>
      </trkpt>
      <trkpt lat="38.699430" lon="-5.244590">
        <ele>646.1</ele>
        <time>2010-03-19T13:39:21Z</time>
      </trkpt>
      <trkpt lat="38.699610" lon="-5.244380">
        <ele>644.2</ele>
        <time>2010-03-19T13:39:41Z</time>
      </trkpt>
      <trkpt lat="38.699790" lon="-5.244160">
        <ele>641.3</ele>
        <time>2010-03-19T13:40:03Z</time>
      </trkpt>
      <trkpt lat="38.699950" lon="-5.243990">
        <ele>640.4</ele>
        <time>2010-03-19T13:40:21Z</time>
      </trkpt>
      <trkpt lat="38.700110" lon="-5.243790">
        <ele>638.0</ele>
        <time>2010-03-19T13:40:40Z</time>
      </trkpt>
      <trkpt lat="38.700310" lon="-5.243560">
        <ele>637.5</ele>
        <time>2010-03-19T13:41:06Z</time>
      </trkpt>
      <trkpt lat="38.700460" lon="-5.243370">
        <ele>638.5</ele>
        <time>2010-03-19T13:41:26Z</time>
      </trkpt>
      <trkpt lat="38.700450" lon="-5.243390">
        <ele>638.9</ele>
        <time>2010-03-19T13:41:57Z</time>
      </trkpt>
      <trkpt lat="38.700460" lon="-5.243380">
        <ele>638.0</ele>
        <time>2010-03-19T13:42:16Z</time>
      </trkpt>
      <trkpt lat="38.700460" lon="-5.243370">
        <ele>638.0</ele>
        <time>2010-03-19T13:42:16Z</time>
      </trkpt>
      <trkpt lat="38.700650" lon="-5.243140">
        <ele>637.5</ele>
        <time>2010-03-19T13:42:42Z</time>
      </trkpt>
      <trkpt lat="38.700820" lon="-5.242930">
        <ele>635.6</ele>
        <time>2010-03-19T13:43:01Z</time>
      </trkpt>
      <trkpt lat="38.701010" lon="-5.242710">
        <ele>632.7</ele>
        <time>2010-03-19T13:43:22Z</time>
      </trkpt>
      <trkpt lat="38.701190" lon="-5.242490">
        <ele>629.3</ele>
        <time>2010-03-19T13:43:43Z</time>
      </trkpt>
      <trkpt lat="38.701350" lon="-5.242290">
        <ele>628.3</ele>
        <time>2010-03-19T13:44:03Z</time>
      </trkpt>
      <trkpt lat="38.701510" lon="-5.242080">
        <ele>626.0</ele>
        <time>2010-03-19T13:44:23Z</time>
      </trkpt>
      <trkpt lat="38.701710" lon="-5.241910">
        <ele>625.0</ele>
        <time>2010-03-19T13:44:46Z</time>
      </trkpt>
      <trkpt lat="38.701720" lon="-5.241880">
        <ele>620.2</ele>
        <time>2010-03-19T13:46:21Z</time>
      </trkpt>
      <trkpt lat="38.701910" lon="-5.241740">
        <ele>621.2</ele>
        <time>2010-03-19T13:46:46Z</time>
      </trkpt>
      <trkpt lat="38.702070" lon="-5.241640">
        <ele>621.2</ele>
        <time>2010-03-19T13:47:05Z</time>
      </trkpt>
      <trkpt lat="38.702240" lon="-5.241540">
        <ele>620.2</ele>
        <time>2010-03-19T13:47:23Z</time>
      </trkpt>
      <trkpt lat="38.702490" lon="-5.241380">
        <ele>613.9</ele>
        <time>2010-03-19T13:47:48Z</time>
      </trkpt>
      <trkpt lat="38.702690" lon="-5.241240">
        <ele>613.0</ele>
        <time>2010-03-19T13:48:09Z</time>
      </trkpt>
      <trkpt lat="38.702870" lon="-5.241120">
        <ele>611.1</ele>
        <time>2010-03-19T13:48:27Z</time>
      </trkpt>
      <trkpt lat="38.702960" lon="-5.241050">
        <ele>611.1</ele>
        <time>2010-03-19T13:48:38Z</time>
      </trkpt>
      <trkpt lat="38.703250" lon="-5.240830">
        <ele>611.6</ele>
        <time>2010-03-19T13:49:20Z</time>
      </trkpt>
      <trkpt lat="38.703390" lon="-5.240750">
        <ele>610.6</ele>
        <time>2010-03-19T13:49:39Z</time>
      </trkpt>
      <trkpt lat="38.703550" lon="-5.240590">
        <ele>608.7</ele>
        <time>2010-03-19T13:50:01Z</time>
      </trkpt>
      <trkpt lat="38.703690" lon="-5.240470">
        <ele>607.7</ele>
        <time>2010-03-19T13:50:18Z</time>
      </trkpt>
      <trkpt lat="38.703790" lon="-5.240380">
        <ele>605.3</ele>
        <time>2010-03-19T13:50:29Z</time>
      </trkpt>
      <trkpt lat="38.703980" lon="-5.240220">
        <ele>604.3</ele>
        <time>2010-03-19T13:50:51Z</time>
      </trkpt>
      <trkpt lat="38.704100" lon="-5.240120">
        <ele>603.4</ele>
        <time>2010-03-19T13:51:08Z</time>
      </trkpt>
      <trkpt lat="38.704140" lon="-5.240050">
        <ele>602.9</ele>
        <time>2010-03-19T13:51:31Z</time>
      </trkpt>
      <trkpt lat="38.704150" lon="-5.240050">
        <ele>601.4</ele>
        <time>2010-03-19T13:51:55Z</time>
      </trkpt>
      <trkpt lat="38.704180" lon="-5.240060">
        <ele>603.8</ele>
        <time>2010-03-19T13:52:22Z</time>
      </trkpt>
      <trkpt lat="38.704210" lon="-5.240060">
        <ele>603.8</ele>
        <time>2010-03-19T13:52:55Z</time>
      </trkpt>
      <trkpt lat="38.704350" lon="-5.239930">
        <ele>600.5</ele>
        <time>2010-03-19T13:53:11Z</time>
      </trkpt>
      <trkpt lat="38.704540" lon="-5.239760">
        <ele>597.6</ele>
        <time>2010-03-19T13:53:31Z</time>
      </trkpt>
      <trkpt lat="38.704610" lon="-5.239670">
        <ele>597.6</ele>
        <time>2010-03-19T13:53:45Z</time>
      </trkpt>
      <trkpt lat="38.704720" lon="-5.239570">
        <ele>595.7</ele>
        <time>2010-03-19T13:54:01Z</time>
      </trkpt>
      <trkpt lat="38.704780" lon="-5.239450">
        <ele>596.6</ele>
        <time>2010-03-19T13:54:17Z</time>
      </trkpt>
      <trkpt lat="38.704790" lon="-5.239440">
        <ele>596.6</ele>
        <time>2010-03-19T13:54:20Z</time>
      </trkpt>
      <trkpt lat="38.704850" lon="-5.239400">
        <ele>598.1</ele>
        <time>2010-03-19T13:54:27Z</time>
      </trkpt>
      <trkpt lat="38.705090" lon="-5.239260">
        <ele>596.2</ele>
        <time>2010-03-19T13:54:50Z</time>
      </trkpt>
      <trkpt lat="38.705270" lon="-5.239110">
        <ele>595.2</ele>
        <time>2010-03-19T13:55:10Z</time>
      </trkpt>
      <trkpt lat="38.705440" lon="-5.238930">
        <ele>592.8</ele>
        <time>2010-03-19T13:55:30Z</time>
      </trkpt>
      <trkpt lat="38.705600" lon="-5.238780">
        <ele>591.8</ele>
        <time>2010-03-19T13:55:49Z</time>
      </trkpt>
      <trkpt lat="38.705840" lon="-5.238590">
        <ele>589.9</ele>
        <time>2010-03-19T13:56:13Z</time>
      </trkpt>
      <trkpt lat="38.705990" lon="-5.238450">
        <ele>586.1</ele>
        <time>2010-03-19T13:56:32Z</time>
      </trkpt>
      <trkpt lat="38.706150" lon="-5.238360">
        <ele>583.2</ele>
        <time>2010-03-19T13:56:50Z</time>
      </trkpt>
      <trkpt lat="38.706320" lon="-5.238230">
        <ele>583.2</ele>
        <time>2010-03-19T13:57:09Z</time>
      </trkpt>
      <trkpt lat="38.706490" lon="-5.238110">
        <ele>581.3</ele>
        <time>2010-03-19T13:57:27Z</time>
      </trkpt>
      <trkpt lat="38.706710" lon="-5.237960">
        <ele>581.3</ele>
        <time>2010-03-19T13:57:50Z</time>
      </trkpt>
      <trkpt lat="38.706870" lon="-5.237850">
        <ele>582.7</ele>
        <time>2010-03-19T13:58:12Z</time>
      </trkpt>
      <trkpt lat="38.707010" lon="-5.237760">
        <ele>578.8</ele>
        <time>2010-03-19T13:58:27Z</time>
      </trkpt>
      <trkpt lat="38.707210" lon="-5.237620">
        <ele>576.4</ele>
        <time>2010-03-19T13:58:47Z</time>
      </trkpt>
      <trkpt lat="38.707360" lon="-5.237480">
        <ele>576.4</ele>
        <time>2010-03-19T13:59:05Z</time>
      </trkpt>
      <trkpt lat="38.707520" lon="-5.237390">
        <ele>574.5</ele>
        <time>2010-03-19T13:59:21Z</time>
      </trkpt>
      <trkpt lat="38.707620" lon="-5.237350">
        <ele>572.1</ele>
        <time>2010-03-19T13:59:30Z</time>
      </trkpt>
      <trkpt lat="38.707840" lon="-5.237210">
        <ele>571.2</ele>
        <time>2010-03-19T13:59:53Z</time>
      </trkpt>
      <trkpt lat="38.707980" lon="-5.237090">
        <ele>571.2</ele>
        <time>2010-03-19T14:00:12Z</time>
      </trkpt>
      <trkpt lat="38.708180" lon="-5.236960">
        <ele>568.3</ele>
        <time>2010-03-19T14:00:34Z</time>
      </trkpt>
      <trkpt lat="38.708360" lon="-5.236850">
        <ele>567.8</ele>
        <time>2010-03-19T14:00:53Z</time>
      </trkpt>
      <trkpt lat="38.708440" lon="-5.236750">
        <ele>566.8</ele>
        <time>2010-03-19T14:01:08Z</time>
      </trkpt>
      <trkpt lat="38.708640" lon="-5.236620">
        <ele>565.9</ele>
        <time>2010-03-19T14:01:28Z</time>
      </trkpt>
      <trkpt lat="38.708830" lon="-5.236490">
        <ele>564.9</ele>
        <time>2010-03-19T14:01:48Z</time>
      </trkpt>
      <trkpt lat="38.709000" lon="-5.236430">
        <ele>565.9</ele>
        <time>2010-03-19T14:02:06Z</time>
      </trkpt>
      <trkpt lat="38.709170" lon="-5.236300">
        <ele>565.9</ele>
        <time>2010-03-19T14:02:24Z</time>
      </trkpt>
      <trkpt lat="38.709400" lon="-5.236160">
        <ele>562.0</ele>
        <time>2010-03-19T14:02:46Z</time>
      </trkpt>
      <trkpt lat="38.709690" lon="-5.235950">
        <ele>555.8</ele>
        <time>2010-03-19T14:03:13Z</time>
      </trkpt>
      <trkpt lat="38.709940" lon="-5.235780">
        <ele>555.3</ele>
        <time>2010-03-19T14:03:39Z</time>
      </trkpt>
      <trkpt lat="38.710150" lon="-5.235660">
        <ele>554.3</ele>
        <time>2010-03-19T14:03:59Z</time>
      </trkpt>
      <trkpt lat="38.710330" lon="-5.235540">
        <ele>554.8</ele>
        <time>2010-03-19T14:04:19Z</time>
      </trkpt>
      <trkpt lat="38.710560" lon="-5.235380">
        <ele>552.9</ele>
        <time>2010-03-19T14:04:45Z</time>
      </trkpt>
      <trkpt lat="38.710760" lon="-5.235230">
        <ele>552.9</ele>
        <time>2010-03-19T14:05:09Z</time>
      </trkpt>
      <trkpt lat="38.710970" lon="-5.235100">
        <ele>551.0</ele>
        <time>2010-03-19T14:05:31Z</time>
      </trkpt>
      <trkpt lat="38.711180" lon="-5.234970">
        <ele>550.0</ele>
        <time>2010-03-19T14:05:52Z</time>
      </trkpt>
      <trkpt lat="38.711370" lon="-5.234840">
        <ele>549.0</ele>
        <time>2010-03-19T14:06:14Z</time>
      </trkpt>
      <trkpt lat="38.711480" lon="-5.234770">
        <ele>550.5</ele>
        <time>2010-03-19T14:06:27Z</time>
      </trkpt>
      <trkpt lat="38.711680" lon="-5.234630">
        <ele>550.0</ele>
        <time>2010-03-19T14:06:49Z</time>
      </trkpt>
      <trkpt lat="38.711930" lon="-5.234480">
        <ele>549.5</ele>
        <time>2010-03-19T14:07:12Z</time>
      </trkpt>
      <trkpt lat="38.712120" lon="-5.234390">
        <ele>547.6</ele>
        <time>2010-03-19T14:07:31Z</time>
      </trkpt>
      <trkpt lat="38.712380" lon="-5.234190">
        <ele>546.2</ele>
        <time>2010-03-19T14:08:01Z</time>
      </trkpt>
      <trkpt lat="38.712590" lon="-5.234050">
        <ele>545.7</ele>
        <time>2010-03-19T14:08:22Z</time>
      </trkpt>
      <trkpt lat="38.712780" lon="-5.233930">
        <ele>545.7</ele>
        <time>2010-03-19T14:08:41Z</time>
      </trkpt>
      <trkpt lat="38.712840" lon="-5.233830">
        <ele>546.7</ele>
        <time>2010-03-19T14:08:56Z</time>
      </trkpt>
      <trkpt lat="38.713050" lon="-5.233720">
        <ele>546.7</ele>
        <time>2010-03-19T14:09:19Z</time>
      </trkpt>
      <trkpt lat="38.713250" lon="-5.233590">
        <ele>544.3</ele>
        <time>2010-03-19T14:09:41Z</time>
      </trkpt>
      <trkpt lat="38.713440" lon="-5.233450">
        <ele>542.8</ele>
        <time>2010-03-19T14:10:02Z</time>
      </trkpt>
      <trkpt lat="38.713630" lon="-5.233340">
        <ele>540.9</ele>
        <time>2010-03-19T14:10:21Z</time>
      </trkpt>
      <trkpt lat="38.713680" lon="-5.233320">
        <ele>539.9</ele>
        <time>2010-03-19T14:10:25Z</time>
      </trkpt>
      <trkpt lat="38.713930" lon="-5.233170">
        <ele>537.5</ele>
        <time>2010-03-19T14:10:47Z</time>
      </trkpt>
      <trkpt lat="38.714110" lon="-5.233040">
        <ele>538.0</ele>
        <time>2010-03-19T14:11:06Z</time>
      </trkpt>
      <trkpt lat="38.714240" lon="-5.232900">
        <ele>538.0</ele>
        <time>2010-03-19T14:11:23Z</time>
      </trkpt>
      <trkpt lat="38.714260" lon="-5.232890">
        <ele>538.9</ele>
        <time>2010-03-19T14:11:39Z</time>
      </trkpt>
      <trkpt lat="38.714280" lon="-5.232890">
        <ele>538.0</ele>
        <time>2010-03-19T14:12:14Z</time>
      </trkpt>
      <trkpt lat="38.714310" lon="-5.232860">
        <ele>539.4</ele>
        <time>2010-03-19T14:12:37Z</time>
      </trkpt>
      <trkpt lat="38.714420" lon="-5.232800">
        <ele>536.5</ele>
        <time>2010-03-19T14:12:59Z</time>
      </trkpt>
      <trkpt lat="38.714620" lon="-5.232680">
        <ele>539.9</ele>
        <time>2010-03-19T14:13:22Z</time>
      </trkpt>
      <trkpt lat="38.714830" lon="-5.232520">
        <ele>539.4</ele>
        <time>2010-03-19T14:13:46Z</time>
      </trkpt>
      <trkpt lat="38.715040" lon="-5.232390">
        <ele>538.9</ele>
        <time>2010-03-19T14:14:08Z</time>
      </trkpt>
      <trkpt lat="38.715210" lon="-5.232270">
        <ele>537.0</ele>
        <time>2010-03-19T14:14:28Z</time>
      </trkpt>
      <trkpt lat="38.715410" lon="-5.232140">
        <ele>535.1</ele>
        <time>2010-03-19T14:14:48Z</time>
      </trkpt>
      <trkpt lat="38.715620" lon="-5.232000">
        <ele>536.5</ele>
        <time>2010-03-19T14:15:13Z</time>
      </trkpt>
      <trkpt lat="38.715830" lon="-5.231840">
        <ele>535.1</ele>
        <time>2010-03-19T14:15:37Z</time>
      </trkpt>
      <trkpt lat="38.716030" lon="-5.231730">
        <ele>536.1</ele>
        <time>2010-03-19T14:15:59Z</time>
      </trkpt>
      <trkpt lat="38.716190" lon="-5.231650">
        <ele>534.6</ele>
        <time>2010-03-19T14:16:16Z</time>
      </trkpt>
      <trkpt lat="38.716280" lon="-5.231630">
        <ele>534.6</ele>
        <time>2010-03-19T14:16:36Z</time>
      </trkpt>
      <trkpt lat="38.716270" lon="-5.231640">
        <ele>538.9</ele>
        <time>2010-03-19T14:17:05Z</time>
      </trkpt>
      <trkpt lat="38.716230" lon="-5.231600">
        <ele>543.8</ele>
        <time>2010-03-19T14:17:41Z</time>
      </trkpt>
      <trkpt lat="38.716250" lon="-5.231610">
        <ele>541.4</ele>
        <time>2010-03-19T14:18:34Z</time>
      </trkpt>
      <trkpt lat="38.716260" lon="-5.231610">
        <ele>536.1</ele>
        <time>2010-03-19T14:19:17Z</time>
      </trkpt>
      <trkpt lat="38.716300" lon="-5.231650">
        <ele>534.6</ele>
        <time>2010-03-19T14:19:43Z</time>
      </trkpt>
      <trkpt lat="38.716300" lon="-5.231620">
        <ele>533.7</ele>
        <time>2010-03-19T14:19:48Z</time>
      </trkpt>
      <trkpt lat="38.716330" lon="-5.231450">
        <ele>534.6</ele>
        <time>2010-03-19T14:20:04Z</time>
      </trkpt>
      <trkpt lat="38.716420" lon="-5.231370">
        <ele>537.5</ele>
        <time>2010-03-19T14:20:24Z</time>
      </trkpt>
      <trkpt lat="38.716450" lon="-5.231280">
        <ele>538.9</ele>
        <time>2010-03-19T14:20:43Z</time>
      </trkpt>
      <trkpt lat="38.716530" lon="-5.231140">
        <ele>538.9</ele>
        <time>2010-03-19T14:20:58Z</time>
      </trkpt>
      <trkpt lat="38.716580" lon="-5.231020">
        <ele>538.9</ele>
        <time>2010-03-19T14:21:10Z</time>
      </trkpt>
      <trkpt lat="38.716600" lon="-5.230890">
        <ele>539.9</ele>
        <time>2010-03-19T14:21:21Z</time>
      </trkpt>
      <trkpt lat="38.716640" lon="-5.230770">
        <ele>539.4</ele>
        <time>2010-03-19T14:21:31Z</time>
      </trkpt>
      <trkpt lat="38.716670" lon="-5.230700">
        <ele>537.5</ele>
        <time>2010-03-19T14:21:36Z</time>
      </trkpt>
      <trkpt lat="38.716700" lon="-5.230570">
        <ele>537.0</ele>
        <time>2010-03-19T14:21:48Z</time>
      </trkpt>
      <trkpt lat="38.716800" lon="-5.230340">
        <ele>537.5</ele>
        <time>2010-03-19T14:22:07Z</time>
      </trkpt>
      <trkpt lat="38.716910" lon="-5.230050">
        <ele>536.5</ele>
        <time>2010-03-19T14:22:31Z</time>
      </trkpt>
      <trkpt lat="38.717000" lon="-5.229830">
        <ele>534.2</ele>
        <time>2010-03-19T14:22:53Z</time>
      </trkpt>
      <trkpt lat="38.717040" lon="-5.229710">
        <ele>531.3</ele>
        <time>2010-03-19T14:23:04Z</time>
      </trkpt>
      <trkpt lat="38.717080" lon="-5.229680">
        <ele>530.3</ele>
        <time>2010-03-19T14:23:08Z</time>
      </trkpt>
      <trkpt lat="38.717170" lon="-5.229400">
        <ele>530.8</ele>
        <time>2010-03-19T14:23:29Z</time>
      </trkpt>
      <trkpt lat="38.717250" lon="-5.229190">
        <ele>529.3</ele>
        <time>2010-03-19T14:23:47Z</time>
      </trkpt>
      <trkpt lat="38.717350" lon="-5.228910">
        <ele>527.9</ele>
        <time>2010-03-19T14:24:09Z</time>
      </trkpt>
      <trkpt lat="38.717460" lon="-5.228690">
        <ele>531.8</ele>
        <time>2010-03-19T14:24:27Z</time>
      </trkpt>
      <trkpt lat="38.717570" lon="-5.228450">
        <ele>533.2</ele>
        <time>2010-03-19T14:24:49Z</time>
      </trkpt>
      <trkpt lat="38.717680" lon="-5.228240">
        <ele>533.2</ele>
        <time>2010-03-19T14:25:08Z</time>
      </trkpt>
      <trkpt lat="38.717750" lon="-5.228130">
        <ele>535.1</ele>
        <time>2010-03-19T14:25:20Z</time>
      </trkpt>
      <trkpt lat="38.717830" lon="-5.228000">
        <ele>537.0</ele>
        <time>2010-03-19T14:25:31Z</time>
      </trkpt>
      <trkpt lat="38.717930" lon="-5.227630">
        <ele>536.1</ele>
        <time>2010-03-19T14:25:57Z</time>
      </trkpt>
      <trkpt lat="38.717960" lon="-5.227580">
        <ele>535.1</ele>
        <time>2010-03-19T14:26:02Z</time>
      </trkpt>
      <trkpt lat="38.718060" lon="-5.227560">
        <ele>533.7</ele>
        <time>2010-03-19T14:26:13Z</time>
      </trkpt>
      <trkpt lat="38.718090" lon="-5.227540">
        <ele>532.7</ele>
        <time>2010-03-19T14:26:17Z</time>
      </trkpt>
      <trkpt lat="38.718230" lon="-5.227280">
        <ele>532.2</ele>
        <time>2010-03-19T14:26:37Z</time>
      </trkpt>
      <trkpt lat="38.718360" lon="-5.227080">
        <ele>532.2</ele>
        <time>2010-03-19T14:26:55Z</time>
      </trkpt>
      <trkpt lat="38.718490" lon="-5.226860">
        <ele>530.3</ele>
        <time>2010-03-19T14:27:15Z</time>
      </trkpt>
      <trkpt lat="38.718600" lon="-5.226630">
        <ele>531.3</ele>
        <time>2010-03-19T14:27:35Z</time>
      </trkpt>
      <trkpt lat="38.718710" lon="-5.226390">
        <ele>532.7</ele>
        <time>2010-03-19T14:27:55Z</time>
      </trkpt>
      <trkpt lat="38.718800" lon="-5.226230">
        <ele>530.3</ele>
        <time>2010-03-19T14:28:13Z</time>
      </trkpt>
      <trkpt lat="38.718890" lon="-5.225990">
        <ele>531.8</ele>
        <time>2010-03-19T14:28:33Z</time>
      </trkpt>
      <trkpt lat="38.718960" lon="-5.225790">
        <ele>532.2</ele>
        <time>2010-03-19T14:28:51Z</time>
      </trkpt>
      <trkpt lat="38.719010" lon="-5.225700">
        <ele>535.1</ele>
        <time>2010-03-19T14:29:11Z</time>
      </trkpt>
      <trkpt lat="38.719140" lon="-5.225420">
        <ele>538.5</ele>
        <time>2010-03-19T14:29:37Z</time>
      </trkpt>
      <trkpt lat="38.719210" lon="-5.225240">
        <ele>537.5</ele>
        <time>2010-03-19T14:29:54Z</time>
      </trkpt>
      <trkpt lat="38.719310" lon="-5.224970">
        <ele>536.1</ele>
        <time>2010-03-19T14:30:20Z</time>
      </trkpt>
      <trkpt lat="38.719390" lon="-5.224810">
        <ele>535.1</ele>
        <time>2010-03-19T14:30:35Z</time>
      </trkpt>
      <trkpt lat="38.719490" lon="-5.224550">
        <ele>538.5</ele>
        <time>2010-03-19T14:30:52Z</time>
      </trkpt>
      <trkpt lat="38.719550" lon="-5.224400">
        <ele>537.0</ele>
        <time>2010-03-19T14:31:08Z</time>
      </trkpt>
      <trkpt lat="38.719640" lon="-5.224220">
        <ele>537.5</ele>
        <time>2010-03-19T14:31:29Z</time>
      </trkpt>
      <trkpt lat="38.719750" lon="-5.223940">
        <ele>534.6</ele>
        <time>2010-03-19T14:31:52Z</time>
      </trkpt>
      <trkpt lat="38.719910" lon="-5.223490">
        <ele>534.2</ele>
        <time>2010-03-19T14:32:32Z</time>
      </trkpt>
      <trkpt lat="38.720010" lon="-5.223230">
        <ele>535.6</ele>
        <time>2010-03-19T14:32:52Z</time>
      </trkpt>
      <trkpt lat="38.720100" lon="-5.223040">
        <ele>539.4</ele>
        <time>2010-03-19T14:33:11Z</time>
      </trkpt>
      <trkpt lat="38.720120" lon="-5.223000">
        <ele>539.4</ele>
        <time>2010-03-19T14:33:15Z</time>
      </trkpt>
      <trkpt lat="38.720180" lon="-5.222820">
        <ele>539.9</ele>
        <time>2010-03-19T14:33:32Z</time>
      </trkpt>
      <trkpt lat="38.720210" lon="-5.222810">
        <ele>539.9</ele>
        <time>2010-03-19T14:33:34Z</time>
      </trkpt>
      <trkpt lat="38.720300" lon="-5.222760">
        <ele>540.9</ele>
        <time>2010-03-19T14:33:57Z</time>
      </trkpt>
      <trkpt lat="38.720310" lon="-5.222720">
        <ele>540.9</ele>
        <time>2010-03-19T14:34:13Z</time>
      </trkpt>
      <trkpt lat="38.720490" lon="-5.222150">
        <ele>540.9</ele>
        <time>2010-03-19T14:34:47Z</time>
      </trkpt>
      <trkpt lat="38.720640" lon="-5.221800">
        <ele>540.9</ele>
        <time>2010-03-19T14:35:11Z</time>
      </trkpt>
      <trkpt lat="38.721050" lon="-5.220780">
        <ele>540.4</ele>
        <time>2010-03-19T14:37:06Z</time>
      </trkpt>
      <trkpt lat="38.721040" lon="-5.219960">
        <ele>540.4</ele>
        <time>2010-03-19T14:39:01Z</time>
      </trkpt>
      <trkpt lat="38.721180" lon="-5.219680">
        <ele>539.4</ele>
        <time>2010-03-19T14:39:20Z</time>
      </trkpt>
      <trkpt lat="38.721210" lon="-5.219470">
        <ele>538.0</ele>
        <time>2010-03-19T14:39:35Z</time>
      </trkpt>
      <trkpt lat="38.721430" lon="-5.218520">
        <ele>536.5</ele>
        <time>2010-03-19T14:41:01Z</time>
      </trkpt>
      <trkpt lat="38.721480" lon="-5.218410">
        <ele>538.5</ele>
        <time>2010-03-19T14:41:09Z</time>
      </trkpt>
      <trkpt lat="38.721650" lon="-5.218060">
        <ele>538.9</ele>
        <time>2010-03-19T14:41:38Z</time>
      </trkpt>
      <trkpt lat="38.721563" lon="-5.217968">
        <ele>540.9</ele>
        <time>2010-03-19T14:41:56Z</time>
      </trkpt>
    </trkseg>
  </trk></gpx>